PWSweather.com
Personal Weather Stations
Station Observations
GRACELEHAN
The Grace C. Lehan Memorial Weather Station, West Hartford, CT 06107

The Grace C. Lehan Memorial Weather StationWest Hartford, CT 06107

Lat: 41.745629, Lon: -72.7443516

Elevation: 136

Station Type: Davis Vantage Pro2 Plus

High Low Average
Temperature 38.7°F3.7°C 23.5°F-4.7°C 30.4°F-0.9°C
Dew Point 27.7°F-2.4°C 8.2°F-13.2°C 20.5°F-6.4°C
Winds 6.0 mph 9.7 kmh Calm Calm Calm SSECalm SSE
Wind Gusts 6.0 mph9.7 kmh -- 2.0 mph3.2 kmh
Humidity 82% 49% 67%
Pressure 30.39 in1029.1 mb 30.18 in1022.0 mb -
Precipitation 0.00 in0.0 mm - -
Hour Temp Dew Point Humidity Winds Wind Gusts Pressure Precip Precip Rate Daily Precip Total
12:00 AM 25.5°F-3.6°C 12.0°F-11.1°C 56% Calm Calm 6.0 mph9.7 kmh 30.28 in1025.4 mb 0.00 in0.0 mm 0.00 in0.0 mm 0.00 in0.0 mm
12:02 AM 25.5°F-3.6°C 11.6°F-11.3°C 55% Calm Calm 2.0 mph3.2 kmh 30.28 in1025.4 mb 0.00 in0.0 mm 0.00 in0.0 mm 0.00 in0.0 mm
12:04 AM 25.4°F-3.7°C 11.9°F-11.2°C 56% Calm Calm 2.0 mph3.2 kmh 30.28 in1025.4 mb 0.00 in0.0 mm 0.00 in0.0 mm 0.00 in0.0 mm
12:06 AM 25.4°F-3.7°C 11.9°F-11.2°C 56% Calm Calm 2.0 mph3.2 kmh 30.28 in1025.4 mb 0.00 in0.0 mm 0.00 in0.0 mm 0.00 in0.0 mm
12:08 AM 25.4°F-3.7°C 11.9°F-11.2°C 56% Calm Calm 2.0 mph3.2 kmh 30.28 in1025.4 mb 0.00 in0.0 mm 0.00 in0.0 mm 0.00 in0.0 mm
12:10 AM 25.4°F-3.7°C 11.5°F-11.4°C 55% Calm Calm 2.0 mph3.2 kmh 30.29 in1025.7 mb 0.00 in0.0 mm 0.00 in0.0 mm 0.00 in0.0 mm
12:12 AM 25.4°F-3.7°C 11.5°F-11.4°C 55% Calm Calm 2.0 mph3.2 kmh 30.28 in1025.4 mb 0.00 in0.0 mm 0.00 in0.0 mm 0.00 in0.0 mm
12:14 AM 25.4°F-3.7°C 11.5°F-11.4°C 55% Calm Calm 2.0 mph3.2 kmh 30.28 in1025.4 mb 0.00 in0.0 mm 0.00 in0.0 mm 0.00 in0.0 mm
12:16 AM 25.4°F-3.7°C 11.5°F-11.4°C 55% Calm Calm 2.0 mph3.2 kmh 30.29 in1025.7 mb 0.00 in0.0 mm 0.00 in0.0 mm 0.00 in0.0 mm
12:18 AM 25.4°F-3.7°C 11.5°F-11.4°C 55% Calm Calm 2.0 mph3.2 kmh 30.29 in1025.7 mb 0.00 in0.0 mm 0.00 in0.0 mm 0.00 in0.0 mm
12:20 AM 25.4°F-3.7°C 11.5°F-11.4°C 55% Calm Calm 2.0 mph3.2 kmh 30.29 in1025.7 mb 0.00 in0.0 mm 0.00 in0.0 mm 0.00 in0.0 mm
12:22 AM 25.4°F-3.7°C 11.5°F-11.4°C 55% Calm Calm 2.0 mph3.2 kmh 30.29 in1025.7 mb 0.00 in0.0 mm 0.00 in0.0 mm 0.00 in0.0 mm
12:24 AM 25.4°F-3.7°C 11.5°F-11.4°C 55% Calm Calm 2.0 mph3.2 kmh 30.29 in1025.7 mb 0.00 in0.0 mm 0.00 in0.0 mm 0.00 in0.0 mm
12:26 AM 25.3°F-3.7°C 11.0°F-11.7°C 54% Calm Calm 2.0 mph3.2 kmh 30.29 in1025.7 mb 0.00 in0.0 mm 0.00 in0.0 mm 0.00 in0.0 mm
12:28 AM 25.3°F-3.7°C 11.0°F-11.7°C 54% 1.0 mph N1.6 kmh N 3.0 mph4.8 kmh 30.29 in1025.7 mb 0.00 in0.0 mm 0.00 in0.0 mm 0.00 in0.0 mm
12:30 AM 25.3°F-3.7°C 10.6°F-11.9°C 53% Calm Calm 3.0 mph4.8 kmh 30.29 in1025.7 mb 0.00 in0.0 mm 0.00 in0.0 mm 0.00 in0.0 mm
12:34 AM 25.3°F-3.7°C 10.6°F-11.9°C 53% Calm Calm 3.0 mph4.8 kmh 30.30 in1026.1 mb 0.00 in0.0 mm 0.00 in0.0 mm 0.00 in0.0 mm
12:36 AM 25.3°F-3.7°C 11.0°F-11.7°C 54% 2.0 mph N3.2 kmh N 3.0 mph4.8 kmh 30.30 in1026.1 mb 0.00 in0.0 mm 0.00 in0.0 mm 0.00 in0.0 mm
12:38 AM 25.3°F-3.7°C 10.6°F-11.9°C 53% Calm Calm 3.0 mph4.8 kmh 30.30 in1026.1 mb 0.00 in0.0 mm 0.00 in0.0 mm 0.00 in0.0 mm
12:40 AM 25.3°F-3.7°C 10.6°F-11.9°C 53% Calm Calm 3.0 mph4.8 kmh 30.30 in1026.1 mb 0.00 in0.0 mm 0.00 in0.0 mm 0.00 in0.0 mm
12:42 AM 25.2°F-3.8°C 10.5°F-11.9°C 53% Calm Calm 3.0 mph4.8 kmh 30.30 in1026.1 mb 0.00 in0.0 mm 0.00 in0.0 mm 0.00 in0.0 mm
12:44 AM 25.2°F-3.8°C 10.5°F-11.9°C 53% Calm Calm 3.0 mph4.8 kmh 30.30 in1026.1 mb 0.00 in0.0 mm 0.00 in0.0 mm 0.00 in0.0 mm
12:46 AM 25.2°F-3.8°C 10.5°F-11.9°C 53% Calm Calm 3.0 mph4.8 kmh 30.30 in1026.1 mb 0.00 in0.0 mm 0.00 in0.0 mm 0.00 in0.0 mm
12:48 AM 25.2°F-3.8°C 10.1°F-12.2°C 52% Calm Calm 3.0 mph4.8 kmh 30.29 in1025.7 mb 0.00 in0.0 mm 0.00 in0.0 mm 0.00 in0.0 mm
12:50 AM 25.2°F-3.8°C 10.5°F-11.9°C 53% Calm Calm 3.0 mph4.8 kmh 30.30 in1026.1 mb 0.00 in0.0 mm 0.00 in0.0 mm 0.00 in0.0 mm
12:52 AM 25.2°F-3.8°C 10.5°F-11.9°C 53% 4.0 mph N6.4 kmh N 4.0 mph6.4 kmh 30.30 in1026.1 mb 0.00 in0.0 mm 0.00 in0.0 mm 0.00 in0.0 mm
12:54 AM 25.2°F-3.8°C 10.1°F-12.2°C 52% Calm Calm 5.0 mph8.0 kmh 30.29 in1025.7 mb 0.00 in0.0 mm 0.00 in0.0 mm 0.00 in0.0 mm
12:56 AM 25.2°F-3.8°C 10.1°F-12.2°C 52% Calm Calm 5.0 mph8.0 kmh 30.30 in1026.1 mb 0.00 in0.0 mm 0.00 in0.0 mm 0.00 in0.0 mm
12:58 AM 25.2°F-3.8°C 10.1°F-12.2°C 52% Calm Calm 5.0 mph8.0 kmh 30.30 in1026.1 mb 0.00 in0.0 mm 0.00 in0.0 mm 0.00 in0.0 mm
01:02 AM 25.2°F-3.8°C 10.1°F-12.2°C 52% Calm Calm -- 30.30 in1026.1 mb 0.00 in0.0 mm 0.00 in0.0 mm 0.00 in0.0 mm
01:04 AM 25.2°F-3.8°C 10.1°F-12.2°C 52% Calm Calm -- 30.30 in1026.1 mb 0.00 in0.0 mm 0.00 in0.0 mm 0.00 in0.0 mm
01:06 AM 25.2°F-3.8°C 10.1°F-12.2°C 52% Calm Calm -- 30.30 in1026.1 mb 0.00 in0.0 mm 0.00 in0.0 mm 0.00 in0.0 mm
01:08 AM 25.1°F-3.8°C 10.0°F-12.2°C 52% Calm Calm -- 30.30 in1026.1 mb 0.00 in0.0 mm 0.00 in0.0 mm 0.00 in0.0 mm
01:10 AM 25.1°F-3.8°C 10.0°F-12.2°C 52% Calm Calm -- 30.30 in1026.1 mb 0.00 in0.0 mm 0.00 in0.0 mm 0.00 in0.0 mm
01:12 AM 25.1°F-3.8°C 10.4°F-12.0°C 53% Calm Calm -- 30.30 in1026.1 mb 0.00 in0.0 mm 0.00 in0.0 mm 0.00 in0.0 mm
01:14 AM 25.2°F-3.8°C 10.1°F-12.2°C 52% Calm Calm -- 30.30 in1026.1 mb 0.00 in0.0 mm 0.00 in0.0 mm 0.00 in0.0 mm
01:16 AM 25.1°F-3.8°C 10.0°F-12.2°C 52% Calm Calm 3.0 mph4.8 kmh 30.30 in1026.1 mb 0.00 in0.0 mm 0.00 in0.0 mm 0.00 in0.0 mm
01:18 AM 25.1°F-3.8°C 10.0°F-12.2°C 52% Calm Calm 3.0 mph4.8 kmh 30.30 in1026.1 mb 0.00 in0.0 mm 0.00 in0.0 mm 0.00 in0.0 mm
01:20 AM 25.1°F-3.8°C 10.0°F-12.2°C 52% Calm Calm 3.0 mph4.8 kmh 30.30 in1026.1 mb 0.00 in0.0 mm 0.00 in0.0 mm 0.00 in0.0 mm
01:22 AM 25.1°F-3.8°C 9.5°F-12.5°C 51% Calm Calm 3.0 mph4.8 kmh 30.30 in1026.1 mb 0.00 in0.0 mm 0.00 in0.0 mm 0.00 in0.0 mm
01:24 AM 25.1°F-3.8°C 10.0°F-12.2°C 52% Calm Calm 3.0 mph4.8 kmh 30.30 in1026.1 mb 0.00 in0.0 mm 0.00 in0.0 mm 0.00 in0.0 mm
01:26 AM 25.2°F-3.8°C 9.6°F-12.4°C 51% Calm Calm 3.0 mph4.8 kmh 30.30 in1026.1 mb 0.00 in0.0 mm 0.00 in0.0 mm 0.00 in0.0 mm
01:28 AM 25.2°F-3.8°C 9.6°F-12.4°C 51% Calm Calm 3.0 mph4.8 kmh 30.30 in1026.1 mb 0.00 in0.0 mm 0.00 in0.0 mm 0.00 in0.0 mm
01:30 AM 25.2°F-3.8°C 9.6°F-12.4°C 51% Calm Calm 3.0 mph4.8 kmh 30.30 in1026.1 mb 0.00 in0.0 mm 0.00 in0.0 mm 0.00 in0.0 mm
01:32 AM 25.2°F-3.8°C 9.6°F-12.4°C 51% Calm Calm -- 30.30 in1026.1 mb 0.00 in0.0 mm 0.00 in0.0 mm 0.00 in0.0 mm
01:34 AM 25.2°F-3.8°C 9.6°F-12.4°C 51% Calm Calm 3.0 mph4.8 kmh 30.30 in1026.1 mb 0.00 in0.0 mm 0.00 in0.0 mm 0.00 in0.0 mm
01:36 AM 25.2°F-3.8°C 9.2°F-12.7°C 50% Calm Calm 3.0 mph4.8 kmh 30.30 in1026.1 mb 0.00 in0.0 mm 0.00 in0.0 mm 0.00 in0.0 mm
01:38 AM 25.2°F-3.8°C 9.2°F-12.7°C 50% Calm Calm 3.0 mph4.8 kmh 30.30 in1026.1 mb 0.00 in0.0 mm 0.00 in0.0 mm 0.00 in0.0 mm
01:40 AM 25.2°F-3.8°C 9.2°F-12.7°C 50% Calm Calm 3.0 mph4.8 kmh 30.30 in1026.1 mb 0.00 in0.0 mm 0.00 in0.0 mm 0.00 in0.0 mm
01:42 AM 25.2°F-3.8°C 9.6°F-12.4°C 51% Calm Calm 6.0 mph9.7 kmh 30.30 in1026.1 mb 0.00 in0.0 mm 0.00 in0.0 mm 0.00 in0.0 mm
01:44 AM 25.2°F-3.8°C 9.2°F-12.7°C 50% Calm Calm 6.0 mph9.7 kmh 30.30 in1026.1 mb 0.00 in0.0 mm 0.00 in0.0 mm 0.00 in0.0 mm
01:46 AM 25.2°F-3.8°C 9.6°F-12.4°C 51% 2.0 mph N3.2 kmh N 6.0 mph9.7 kmh 30.30 in1026.1 mb 0.00 in0.0 mm 0.00 in0.0 mm 0.00 in0.0 mm
01:48 AM 25.2°F-3.8°C 9.6°F-12.4°C 51% Calm Calm 6.0 mph9.7 kmh 30.30 in1026.1 mb 0.00 in0.0 mm 0.00 in0.0 mm 0.00 in0.0 mm
01:50 AM 25.2°F-3.8°C 9.6°F-12.4°C 51% Calm Calm 6.0 mph9.7 kmh 30.29 in1025.7 mb 0.00 in0.0 mm 0.00 in0.0 mm 0.00 in0.0 mm
01:52 AM 25.3°F-3.7°C 9.7°F-12.4°C 51% Calm Calm 6.0 mph9.7 kmh 30.29 in1025.7 mb 0.00 in0.0 mm 0.00 in0.0 mm 0.00 in0.0 mm
01:54 AM 25.3°F-3.7°C 9.7°F-12.4°C 51% Calm Calm 6.0 mph9.7 kmh 30.29 in1025.7 mb 0.00 in0.0 mm 0.00 in0.0 mm 0.00 in0.0 mm
01:56 AM 25.3°F-3.7°C 9.7°F-12.4°C 51% Calm Calm 6.0 mph9.7 kmh 30.29 in1025.7 mb 0.00 in0.0 mm 0.00 in0.0 mm 0.00 in0.0 mm
01:58 AM 25.3°F-3.7°C 9.3°F-12.6°C 50% Calm Calm 6.0 mph9.7 kmh 30.29 in1025.7 mb 0.00 in0.0 mm 0.00 in0.0 mm 0.00 in0.0 mm
02:00 AM 25.3°F-3.7°C 9.3°F-12.6°C 50% Calm Calm 6.0 mph9.7 kmh 30.30 in1026.1 mb 0.00 in0.0 mm 0.00 in0.0 mm 0.00 in0.0 mm
02:02 AM 25.3°F-3.7°C 9.3°F-12.6°C 50% Calm Calm -- 30.30 in1026.1 mb 0.00 in0.0 mm 0.00 in0.0 mm 0.00 in0.0 mm
02:04 AM 25.3°F-3.7°C 9.3°F-12.6°C 50% Calm Calm -- 30.30 in1026.1 mb 0.00 in0.0 mm 0.00 in0.0 mm 0.00 in0.0 mm
02:06 AM 25.2°F-3.8°C 9.2°F-12.7°C 50% Calm Calm -- 30.30 in1026.1 mb 0.00 in0.0 mm 0.00 in0.0 mm 0.00 in0.0 mm
02:08 AM 25.2°F-3.8°C 9.6°F-12.4°C 51% Calm Calm 1.0 mph1.6 kmh 30.30 in1026.1 mb 0.00 in0.0 mm 0.00 in0.0 mm 0.00 in0.0 mm
02:10 AM 25.2°F-3.8°C 9.6°F-12.4°C 51% Calm Calm 1.0 mph1.6 kmh 30.30 in1026.1 mb 0.00 in0.0 mm 0.00 in0.0 mm 0.00 in0.0 mm
02:12 AM 25.2°F-3.8°C 9.6°F-12.4°C 51% Calm Calm 1.0 mph1.6 kmh 30.30 in1026.1 mb 0.00 in0.0 mm 0.00 in0.0 mm 0.00 in0.0 mm
02:14 AM 25.2°F-3.8°C 9.2°F-12.7°C 50% Calm Calm 1.0 mph1.6 kmh 30.30 in1026.1 mb 0.00 in0.0 mm 0.00 in0.0 mm 0.00 in0.0 mm
02:16 AM 25.2°F-3.8°C 9.2°F-12.7°C 50% Calm Calm 1.0 mph1.6 kmh 30.30 in1026.1 mb 0.00 in0.0 mm 0.00 in0.0 mm 0.00 in0.0 mm
02:18 AM 25.1°F-3.8°C 9.1°F-12.7°C 50% Calm Calm 1.0 mph1.6 kmh 30.30 in1026.1 mb 0.00 in0.0 mm 0.00 in0.0 mm 0.00 in0.0 mm
02:20 AM 25.1°F-3.8°C 9.1°F-12.7°C 50% Calm Calm 3.0 mph4.8 kmh 30.30 in1026.1 mb 0.00 in0.0 mm 0.00 in0.0 mm 0.00 in0.0 mm
02:22 AM 25.1°F-3.8°C 9.5°F-12.5°C 51% Calm Calm 3.0 mph4.8 kmh 30.30 in1026.1 mb 0.00 in0.0 mm 0.00 in0.0 mm 0.00 in0.0 mm
02:24 AM 25.1°F-3.8°C 9.5°F-12.5°C 51% Calm Calm 3.0 mph4.8 kmh 30.30 in1026.1 mb 0.00 in0.0 mm 0.00 in0.0 mm 0.00 in0.0 mm
02:26 AM 25.1°F-3.8°C 9.5°F-12.5°C 51% 3.0 mph NNE4.8 kmh NNE 3.0 mph4.8 kmh 30.30 in1026.1 mb 0.00 in0.0 mm 0.00 in0.0 mm 0.00 in0.0 mm
02:28 AM 25.0°F-3.9°C 8.6°F-13.0°C 49% Calm Calm 3.0 mph4.8 kmh 30.30 in1026.1 mb 0.00 in0.0 mm 0.00 in0.0 mm 0.00 in0.0 mm
02:30 AM 25.0°F-3.9°C 8.6°F-13.0°C 49% 1.0 mph NE1.6 kmh NE 5.0 mph8.0 kmh 30.30 in1026.1 mb 0.00 in0.0 mm 0.00 in0.0 mm 0.00 in0.0 mm
02:34 AM 25.0°F-3.9°C 9.0°F-12.8°C 50% Calm Calm -- 30.30 in1026.1 mb 0.00 in0.0 mm 0.00 in0.0 mm 0.00 in0.0 mm
02:36 AM 24.9°F-3.9°C 8.9°F-12.8°C 50% Calm Calm -- 30.30 in1026.1 mb 0.00 in0.0 mm 0.00 in0.0 mm 0.00 in0.0 mm
02:38 AM 24.9°F-3.9°C 8.9°F-12.8°C 50% Calm Calm 1.0 mph1.6 kmh 30.30 in1026.1 mb 0.00 in0.0 mm 0.00 in0.0 mm 0.00 in0.0 mm
02:40 AM 24.9°F-3.9°C 9.4°F-12.6°C 51% Calm Calm 1.0 mph1.6 kmh 30.30 in1026.1 mb 0.00 in0.0 mm 0.00 in0.0 mm 0.00 in0.0 mm
02:42 AM 24.9°F-3.9°C 9.4°F-12.6°C 51% Calm Calm 1.0 mph1.6 kmh 30.30 in1026.1 mb 0.00 in0.0 mm 0.00 in0.0 mm 0.00 in0.0 mm
02:44 AM 24.9°F-3.9°C 9.4°F-12.6°C 51% Calm Calm 1.0 mph1.6 kmh 30.30 in1026.1 mb 0.00 in0.0 mm 0.00 in0.0 mm 0.00 in0.0 mm
02:46 AM 24.9°F-3.9°C 9.4°F-12.6°C 51% Calm Calm 1.0 mph1.6 kmh 30.29 in1025.7 mb 0.00 in0.0 mm 0.00 in0.0 mm 0.00 in0.0 mm
02:48 AM 24.9°F-3.9°C 9.8°F-12.3°C 52% Calm Calm 2.0 mph3.2 kmh 30.29 in1025.7 mb 0.00 in0.0 mm 0.00 in0.0 mm 0.00 in0.0 mm
02:50 AM 24.8°F-4.0°C 9.3°F-12.6°C 51% Calm Calm 2.0 mph3.2 kmh 30.29 in1025.7 mb 0.00 in0.0 mm 0.00 in0.0 mm 0.00 in0.0 mm
02:52 AM 24.8°F-4.0°C 9.3°F-12.6°C 51% Calm Calm 2.0 mph3.2 kmh 30.29 in1025.7 mb 0.00 in0.0 mm 0.00 in0.0 mm 0.00 in0.0 mm
02:54 AM 24.8°F-4.0°C 9.3°F-12.6°C 51% Calm Calm 2.0 mph3.2 kmh 30.29 in1025.7 mb 0.00 in0.0 mm 0.00 in0.0 mm 0.00 in0.0 mm
02:56 AM 24.8°F-4.0°C 9.3°F-12.6°C 51% Calm Calm 2.0 mph3.2 kmh 30.29 in1025.7 mb 0.00 in0.0 mm 0.00 in0.0 mm 0.00 in0.0 mm
02:58 AM 24.8°F-4.0°C 9.3°F-12.6°C 51% 1.0 mph NE1.6 kmh NE 3.0 mph4.8 kmh 30.29 in1025.7 mb 0.00 in0.0 mm 0.00 in0.0 mm 0.00 in0.0 mm
03:00 AM 24.8°F-4.0°C 9.3°F-12.6°C 51% Calm Calm 4.0 mph6.4 kmh 30.29 in1025.7 mb 0.00 in0.0 mm 0.00 in0.0 mm 0.00 in0.0 mm
03:02 AM 24.8°F-4.0°C 9.3°F-12.6°C 51% Calm Calm -- 30.30 in1026.1 mb 0.00 in0.0 mm 0.00 in0.0 mm 0.00 in0.0 mm
03:04 AM 24.8°F-4.0°C 9.3°F-12.6°C 51% Calm Calm -- 30.30 in1026.1 mb 0.00 in0.0 mm 0.00 in0.0 mm 0.00 in0.0 mm
03:06 AM 24.8°F-4.0°C 9.7°F-12.4°C 52% Calm Calm -- 30.30 in1026.1 mb 0.00 in0.0 mm 0.00 in0.0 mm 0.00 in0.0 mm
03:08 AM 24.8°F-4.0°C 9.7°F-12.4°C 52% 1.0 mph NE1.6 kmh NE 1.0 mph1.6 kmh 30.30 in1026.1 mb 0.00 in0.0 mm 0.00 in0.0 mm 0.00 in0.0 mm
03:10 AM 24.8°F-4.0°C 9.7°F-12.4°C 52% Calm Calm 1.0 mph1.6 kmh 30.30 in1026.1 mb 0.00 in0.0 mm 0.00 in0.0 mm 0.00 in0.0 mm
03:12 AM 24.8°F-4.0°C 9.7°F-12.4°C 52% Calm Calm 1.0 mph1.6 kmh 30.29 in1025.7 mb 0.00 in0.0 mm 0.00 in0.0 mm 0.00 in0.0 mm
03:14 AM 24.8°F-4.0°C 10.1°F-12.2°C 53% Calm Calm 5.0 mph8.0 kmh 30.29 in1025.7 mb 0.00 in0.0 mm 0.00 in0.0 mm 0.00 in0.0 mm
03:16 AM 24.9°F-3.9°C 9.8°F-12.3°C 52% Calm Calm 5.0 mph8.0 kmh 30.29 in1025.7 mb 0.00 in0.0 mm 0.00 in0.0 mm 0.00 in0.0 mm
03:18 AM 24.9°F-3.9°C 9.8°F-12.3°C 52% Calm Calm 5.0 mph8.0 kmh 30.29 in1025.7 mb 0.00 in0.0 mm 0.00 in0.0 mm 0.00 in0.0 mm
03:20 AM 24.9°F-3.9°C 10.2°F-12.1°C 53% Calm Calm 5.0 mph8.0 kmh 30.30 in1026.1 mb 0.00 in0.0 mm 0.00 in0.0 mm 0.00 in0.0 mm
03:22 AM 24.8°F-4.0°C 9.7°F-12.4°C 52% 3.0 mph N4.8 kmh N 5.0 mph8.0 kmh 30.30 in1026.1 mb 0.00 in0.0 mm 0.00 in0.0 mm 0.00 in0.0 mm
03:24 AM 24.8°F-4.0°C 9.7°F-12.4°C 52% Calm Calm 5.0 mph8.0 kmh 30.30 in1026.1 mb 0.00 in0.0 mm 0.00 in0.0 mm 0.00 in0.0 mm
03:26 AM 24.9°F-3.9°C 9.8°F-12.3°C 52% Calm Calm 5.0 mph8.0 kmh 30.30 in1026.1 mb 0.00 in0.0 mm 0.00 in0.0 mm 0.00 in0.0 mm
03:28 AM 24.8°F-4.0°C 10.1°F-12.2°C 53% Calm Calm 5.0 mph8.0 kmh 30.30 in1026.1 mb 0.00 in0.0 mm 0.00 in0.0 mm 0.00 in0.0 mm
03:30 AM 24.8°F-4.0°C 10.1°F-12.2°C 53% Calm Calm 5.0 mph8.0 kmh 30.30 in1026.1 mb 0.00 in0.0 mm 0.00 in0.0 mm 0.00 in0.0 mm
03:34 AM 24.8°F-4.0°C 9.7°F-12.4°C 52% Calm Calm 6.0 mph9.7 kmh 30.30 in1026.1 mb 0.00 in0.0 mm 0.00 in0.0 mm 0.00 in0.0 mm
03:36 AM 24.8°F-4.0°C 9.7°F-12.4°C 52% Calm Calm 6.0 mph9.7 kmh 30.30 in1026.1 mb 0.00 in0.0 mm 0.00 in0.0 mm 0.00 in0.0 mm
03:38 AM 24.8°F-4.0°C 10.1°F-12.2°C 53% Calm Calm 6.0 mph9.7 kmh 30.30 in1026.1 mb 0.00 in0.0 mm 0.00 in0.0 mm 0.00 in0.0 mm
03:40 AM 24.8°F-4.0°C 9.7°F-12.4°C 52% Calm Calm 6.0 mph9.7 kmh 30.30 in1026.1 mb 0.00 in0.0 mm 0.00 in0.0 mm 0.00 in0.0 mm
03:42 AM 24.8°F-4.0°C 10.1°F-12.2°C 53% Calm Calm 6.0 mph9.7 kmh 30.30 in1026.1 mb 0.00 in0.0 mm 0.00 in0.0 mm 0.00 in0.0 mm
03:44 AM 24.8°F-4.0°C 9.7°F-12.4°C 52% Calm Calm 6.0 mph9.7 kmh 30.30 in1026.1 mb 0.00 in0.0 mm 0.00 in0.0 mm 0.00 in0.0 mm
03:46 AM 24.8°F-4.0°C 9.7°F-12.4°C 52% Calm Calm 6.0 mph9.7 kmh 30.31 in1026.4 mb 0.00 in0.0 mm 0.00 in0.0 mm 0.00 in0.0 mm
03:48 AM 24.8°F-4.0°C 9.3°F-12.6°C 51% Calm Calm 6.0 mph9.7 kmh 30.30 in1026.1 mb 0.00 in0.0 mm 0.00 in0.0 mm 0.00 in0.0 mm
03:50 AM 24.8°F-4.0°C 9.7°F-12.4°C 52% Calm Calm 6.0 mph9.7 kmh 30.31 in1026.4 mb 0.00 in0.0 mm 0.00 in0.0 mm 0.00 in0.0 mm
03:52 AM 24.8°F-4.0°C 10.1°F-12.2°C 53% Calm Calm 6.0 mph9.7 kmh 30.30 in1026.1 mb 0.00 in0.0 mm 0.00 in0.0 mm 0.00 in0.0 mm
03:54 AM 24.8°F-4.0°C 9.7°F-12.4°C 52% Calm Calm 6.0 mph9.7 kmh 30.30 in1026.1 mb 0.00 in0.0 mm 0.00 in0.0 mm 0.00 in0.0 mm
03:56 AM 24.8°F-4.0°C 9.7°F-12.4°C 52% Calm Calm 6.0 mph9.7 kmh 30.30 in1026.1 mb 0.00 in0.0 mm 0.00 in0.0 mm 0.00 in0.0 mm
03:58 AM 24.8°F-4.0°C 9.7°F-12.4°C 52% Calm Calm 6.0 mph9.7 kmh 30.30 in1026.1 mb 0.00 in0.0 mm 0.00 in0.0 mm 0.00 in0.0 mm
04:00 AM 24.8°F-4.0°C 9.7°F-12.4°C 52% Calm Calm 6.0 mph9.7 kmh 30.30 in1026.1 mb 0.00 in0.0 mm 0.00 in0.0 mm 0.00 in0.0 mm
04:02 AM 24.8°F-4.0°C 9.7°F-12.4°C 52% Calm Calm -- 30.30 in1026.1 mb 0.00 in0.0 mm 0.00 in0.0 mm 0.00 in0.0 mm
04:04 AM 24.8°F-4.0°C 10.1°F-12.2°C 53% Calm Calm -- 30.30 in1026.1 mb 0.00 in0.0 mm 0.00 in0.0 mm 0.00 in0.0 mm
04:06 AM 24.8°F-4.0°C 9.7°F-12.4°C 52% Calm Calm -- 30.30 in1026.1 mb 0.00 in0.0 mm 0.00 in0.0 mm 0.00 in0.0 mm
04:08 AM 24.8°F-4.0°C 10.1°F-12.2°C 53% Calm Calm -- 30.31 in1026.4 mb 0.00 in0.0 mm 0.00 in0.0 mm 0.00 in0.0 mm
04:10 AM 24.8°F-4.0°C 9.7°F-12.4°C 52% Calm Calm -- 30.31 in1026.4 mb 0.00 in0.0 mm 0.00 in0.0 mm 0.00 in0.0 mm
04:12 AM 24.8°F-4.0°C 9.7°F-12.4°C 52% 2.0 mph N3.2 kmh N 2.0 mph3.2 kmh 30.31 in1026.4 mb 0.00 in0.0 mm 0.00 in0.0 mm 0.00 in0.0 mm
04:14 AM 24.8°F-4.0°C 9.7°F-12.4°C 52% Calm Calm 2.0 mph3.2 kmh 30.30 in1026.1 mb 0.00 in0.0 mm 0.00 in0.0 mm 0.00 in0.0 mm
04:16 AM 24.7°F-4.1°C 10.0°F-12.2°C 53% Calm Calm 2.0 mph3.2 kmh 30.30 in1026.1 mb 0.00 in0.0 mm 0.00 in0.0 mm 0.00 in0.0 mm
04:18 AM 24.7°F-4.1°C 10.0°F-12.2°C 53% Calm Calm 2.0 mph3.2 kmh 30.30 in1026.1 mb 0.00 in0.0 mm 0.00 in0.0 mm 0.00 in0.0 mm
04:20 AM 24.7°F-4.1°C 10.0°F-12.2°C 53% Calm Calm 2.0 mph3.2 kmh 30.30 in1026.1 mb 0.00 in0.0 mm 0.00 in0.0 mm 0.00 in0.0 mm
04:22 AM 24.7°F-4.1°C 10.0°F-12.2°C 53% Calm Calm 2.0 mph3.2 kmh 30.30 in1026.1 mb 0.00 in0.0 mm 0.00 in0.0 mm 0.00 in0.0 mm
04:24 AM 24.8°F-4.0°C 10.1°F-12.2°C 53% Calm Calm 2.0 mph3.2 kmh 30.30 in1026.1 mb 0.00 in0.0 mm 0.00 in0.0 mm 0.00 in0.0 mm
04:26 AM 24.8°F-4.0°C 9.7°F-12.4°C 52% Calm Calm 2.0 mph3.2 kmh 30.31 in1026.4 mb 0.00 in0.0 mm 0.00 in0.0 mm 0.00 in0.0 mm
04:28 AM 24.8°F-4.0°C 9.7°F-12.4°C 52% Calm Calm 2.0 mph3.2 kmh 30.31 in1026.4 mb 0.00 in0.0 mm 0.00 in0.0 mm 0.00 in0.0 mm
04:30 AM 24.8°F-4.0°C 10.1°F-12.2°C 53% Calm Calm 2.0 mph3.2 kmh 30.31 in1026.4 mb 0.00 in0.0 mm 0.00 in0.0 mm 0.00 in0.0 mm
04:34 AM 24.8°F-4.0°C 10.1°F-12.2°C 53% Calm Calm -- 30.31 in1026.4 mb 0.00 in0.0 mm 0.00 in0.0 mm 0.00 in0.0 mm
04:36 AM 24.8°F-4.0°C 10.1°F-12.2°C 53% Calm Calm -- 30.31 in1026.4 mb 0.00 in0.0 mm 0.00 in0.0 mm 0.00 in0.0 mm
04:38 AM 24.8°F-4.0°C 10.1°F-12.2°C 53% Calm Calm -- 30.31 in1026.4 mb 0.00 in0.0 mm 0.00 in0.0 mm 0.00 in0.0 mm
04:40 AM 24.8°F-4.0°C 10.1°F-12.2°C 53% Calm Calm -- 30.31 in1026.4 mb 0.00 in0.0 mm 0.00 in0.0 mm 0.00 in0.0 mm
04:42 AM 24.8°F-4.0°C 10.1°F-12.2°C 53% Calm Calm -- 30.32 in1026.8 mb 0.00 in0.0 mm 0.00 in0.0 mm 0.00 in0.0 mm
04:44 AM 24.8°F-4.0°C 10.1°F-12.2°C 53% Calm Calm -- 30.32 in1026.8 mb 0.00 in0.0 mm 0.00 in0.0 mm 0.00 in0.0 mm
04:46 AM 24.8°F-4.0°C 10.1°F-12.2°C 53% Calm Calm 1.0 mph1.6 kmh 30.32 in1026.8 mb 0.00 in0.0 mm 0.00 in0.0 mm 0.00 in0.0 mm
04:48 AM 24.8°F-4.0°C 10.1°F-12.2°C 53% Calm Calm 2.0 mph3.2 kmh 30.32 in1026.8 mb 0.00 in0.0 mm 0.00 in0.0 mm 0.00 in0.0 mm
04:50 AM 24.8°F-4.0°C 10.1°F-12.2°C 53% Calm Calm 2.0 mph3.2 kmh 30.31 in1026.4 mb 0.00 in0.0 mm 0.00 in0.0 mm 0.00 in0.0 mm
04:52 AM 24.8°F-4.0°C 10.1°F-12.2°C 53% Calm Calm 2.0 mph3.2 kmh 30.31 in1026.4 mb 0.00 in0.0 mm 0.00 in0.0 mm 0.00 in0.0 mm
04:54 AM 24.8°F-4.0°C 9.7°F-12.4°C 52% Calm Calm 3.0 mph4.8 kmh 30.31 in1026.4 mb 0.00 in0.0 mm 0.00 in0.0 mm 0.00 in0.0 mm
04:56 AM 24.9°F-3.9°C 9.8°F-12.3°C 52% Calm Calm 3.0 mph4.8 kmh 30.31 in1026.4 mb 0.00 in0.0 mm 0.00 in0.0 mm 0.00 in0.0 mm
04:58 AM 24.9°F-3.9°C 9.4°F-12.6°C 51% Calm Calm 3.0 mph4.8 kmh 30.31 in1026.4 mb 0.00 in0.0 mm 0.00 in0.0 mm 0.00 in0.0 mm
05:00 AM 24.8°F-4.0°C 9.7°F-12.4°C 52% Calm Calm 3.0 mph4.8 kmh 30.31 in1026.4 mb 0.00 in0.0 mm 0.00 in0.0 mm 0.00 in0.0 mm
05:02 AM 24.9°F-3.9°C 9.8°F-12.3°C 52% Calm Calm -- 30.31 in1026.4 mb 0.00 in0.0 mm 0.00 in0.0 mm 0.00 in0.0 mm
05:04 AM 24.8°F-4.0°C 10.1°F-12.2°C 53% 2.0 mph N3.2 kmh N 3.0 mph4.8 kmh 30.31 in1026.4 mb 0.00 in0.0 mm 0.00 in0.0 mm 0.00 in0.0 mm
05:06 AM 24.8°F-4.0°C 9.7°F-12.4°C 52% Calm Calm 3.0 mph4.8 kmh 30.31 in1026.4 mb 0.00 in0.0 mm 0.00 in0.0 mm 0.00 in0.0 mm
05:08 AM 24.8°F-4.0°C 9.3°F-12.6°C 51% Calm Calm 3.0 mph4.8 kmh 30.31 in1026.4 mb 0.00 in0.0 mm 0.00 in0.0 mm 0.00 in0.0 mm
05:10 AM 24.8°F-4.0°C 9.3°F-12.6°C 51% Calm Calm 3.0 mph4.8 kmh 30.31 in1026.4 mb 0.00 in0.0 mm 0.00 in0.0 mm 0.00 in0.0 mm
05:12 AM 24.8°F-4.0°C 9.3°F-12.6°C 51% Calm Calm 3.0 mph4.8 kmh 30.31 in1026.4 mb 0.00 in0.0 mm 0.00 in0.0 mm 0.00 in0.0 mm
05:14 AM 24.8°F-4.0°C 9.3°F-12.6°C 51% Calm Calm 3.0 mph4.8 kmh 30.31 in1026.4 mb 0.00 in0.0 mm 0.00 in0.0 mm 0.00 in0.0 mm
05:16 AM 24.8°F-4.0°C 9.7°F-12.4°C 52% Calm Calm 3.0 mph4.8 kmh 30.31 in1026.4 mb 0.00 in0.0 mm 0.00 in0.0 mm 0.00 in0.0 mm
05:18 AM 24.8°F-4.0°C 9.3°F-12.6°C 51% Calm Calm 3.0 mph4.8 kmh 30.32 in1026.8 mb 0.00 in0.0 mm 0.00 in0.0 mm 0.00 in0.0 mm
05:20 AM 24.8°F-4.0°C 8.8°F-12.9°C 50% Calm Calm 4.0 mph6.4 kmh 30.32 in1026.8 mb 0.00 in0.0 mm 0.00 in0.0 mm 0.00 in0.0 mm
05:22 AM 24.8°F-4.0°C 8.8°F-12.9°C 50% Calm Calm 4.0 mph6.4 kmh 30.32 in1026.8 mb 0.00 in0.0 mm 0.00 in0.0 mm 0.00 in0.0 mm
05:24 AM 24.7°F-4.1°C 8.7°F-12.9°C 50% Calm Calm 4.0 mph6.4 kmh 30.31 in1026.4 mb 0.00 in0.0 mm 0.00 in0.0 mm 0.00 in0.0 mm
05:26 AM 24.7°F-4.1°C 8.3°F-13.2°C 49% Calm Calm 4.0 mph6.4 kmh 30.31 in1026.4 mb 0.00 in0.0 mm 0.00 in0.0 mm 0.00 in0.0 mm
05:28 AM 24.7°F-4.1°C 8.7°F-12.9°C 50% Calm Calm 4.0 mph6.4 kmh 30.31 in1026.4 mb 0.00 in0.0 mm 0.00 in0.0 mm 0.00 in0.0 mm
05:30 AM 24.7°F-4.1°C 8.7°F-12.9°C 50% Calm Calm 4.0 mph6.4 kmh 30.32 in1026.8 mb 0.00 in0.0 mm 0.00 in0.0 mm 0.00 in0.0 mm
05:34 AM 24.6°F-4.1°C 8.2°F-13.2°C 49% Calm Calm 2.0 mph3.2 kmh 30.32 in1026.8 mb 0.00 in0.0 mm 0.00 in0.0 mm 0.00 in0.0 mm
05:36 AM 24.6°F-4.1°C 8.6°F-13.0°C 50% Calm Calm 2.0 mph3.2 kmh 30.31 in1026.4 mb 0.00 in0.0 mm 0.00 in0.0 mm 0.00 in0.0 mm
05:38 AM 24.6°F-4.1°C 9.1°F-12.7°C 51% Calm Calm 2.0 mph3.2 kmh 30.31 in1026.4 mb 0.00 in0.0 mm 0.00 in0.0 mm 0.00 in0.0 mm
05:40 AM 24.6°F-4.1°C 9.1°F-12.7°C 51% Calm Calm 2.0 mph3.2 kmh 30.32 in1026.8 mb 0.00 in0.0 mm 0.00 in0.0 mm 0.00 in0.0 mm
05:42 AM 24.6°F-4.1°C 9.1°F-12.7°C 51% Calm Calm 2.0 mph3.2 kmh 30.32 in1026.8 mb 0.00 in0.0 mm 0.00 in0.0 mm 0.00 in0.0 mm
05:44 AM 24.6°F-4.1°C 9.1°F-12.7°C 51% Calm Calm 2.0 mph3.2 kmh 30.32 in1026.8 mb 0.00 in0.0 mm 0.00 in0.0 mm 0.00 in0.0 mm
05:46 AM 24.6°F-4.1°C 9.1°F-12.7°C 51% Calm Calm 2.0 mph3.2 kmh 30.31 in1026.4 mb 0.00 in0.0 mm 0.00 in0.0 mm 0.00 in0.0 mm
05:48 AM 24.6°F-4.1°C 9.5°F-12.5°C 52% Calm Calm 2.0 mph3.2 kmh 30.31 in1026.4 mb 0.00 in0.0 mm 0.00 in0.0 mm 0.00 in0.0 mm
05:50 AM 24.6°F-4.1°C 9.5°F-12.5°C 52% Calm Calm 2.0 mph3.2 kmh 30.31 in1026.4 mb 0.00 in0.0 mm 0.00 in0.0 mm 0.00 in0.0 mm
05:52 AM 24.7°F-4.1°C 9.6°F-12.4°C 52% Calm Calm 2.0 mph3.2 kmh 30.32 in1026.8 mb 0.00 in0.0 mm 0.00 in0.0 mm 0.00 in0.0 mm
05:54 AM 24.6°F-4.1°C 9.1°F-12.7°C 51% Calm Calm 2.0 mph3.2 kmh 30.32 in1026.8 mb 0.00 in0.0 mm 0.00 in0.0 mm 0.00 in0.0 mm
05:56 AM 24.7°F-4.1°C 9.2°F-12.7°C 51% Calm Calm 2.0 mph3.2 kmh 30.32 in1026.8 mb 0.00 in0.0 mm 0.00 in0.0 mm 0.00 in0.0 mm
05:58 AM 24.6°F-4.1°C 9.1°F-12.7°C 51% Calm Calm 2.0 mph3.2 kmh 30.32 in1026.8 mb 0.00 in0.0 mm 0.00 in0.0 mm 0.00 in0.0 mm
06:00 AM 24.7°F-4.1°C 9.6°F-12.4°C 52% Calm Calm 2.0 mph3.2 kmh 30.32 in1026.8 mb 0.00 in0.0 mm 0.00 in0.0 mm 0.00 in0.0 mm
06:02 AM 24.7°F-4.1°C 9.6°F-12.4°C 52% Calm Calm -- 30.32 in1026.8 mb 0.00 in0.0 mm 0.00 in0.0 mm 0.00 in0.0 mm
06:04 AM 24.7°F-4.1°C 10.0°F-12.2°C 53% Calm Calm -- 30.32 in1026.8 mb 0.00 in0.0 mm 0.00 in0.0 mm 0.00 in0.0 mm
06:06 AM 24.7°F-4.1°C 9.6°F-12.4°C 52% Calm Calm -- 30.32 in1026.8 mb 0.00 in0.0 mm 0.00 in0.0 mm 0.00 in0.0 mm
06:08 AM 24.7°F-4.1°C 9.6°F-12.4°C 52% Calm Calm -- 30.33 in1027.1 mb 0.00 in0.0 mm 0.00 in0.0 mm 0.00 in0.0 mm
06:10 AM 24.7°F-4.1°C 9.6°F-12.4°C 52% Calm Calm 1.0 mph1.6 kmh 30.33 in1027.1 mb 0.00 in0.0 mm 0.00 in0.0 mm 0.00 in0.0 mm
06:12 AM 24.7°F-4.1°C 9.6°F-12.4°C 52% Calm Calm 1.0 mph1.6 kmh 30.33 in1027.1 mb 0.00 in0.0 mm 0.00 in0.0 mm 0.00 in0.0 mm
06:14 AM 24.7°F-4.1°C 9.6°F-12.4°C 52% Calm Calm 1.0 mph1.6 kmh 30.33 in1027.1 mb 0.00 in0.0 mm 0.00 in0.0 mm 0.00 in0.0 mm
06:16 AM 24.7°F-4.1°C 9.6°F-12.4°C 52% Calm Calm 1.0 mph1.6 kmh 30.33 in1027.1 mb 0.00 in0.0 mm 0.00 in0.0 mm 0.00 in0.0 mm
06:18 AM 24.7°F-4.1°C 9.6°F-12.4°C 52% Calm Calm 1.0 mph1.6 kmh 30.33 in1027.1 mb 0.00 in0.0 mm 0.00 in0.0 mm 0.00 in0.0 mm
06:20 AM 24.7°F-4.1°C 9.6°F-12.4°C 52% Calm Calm 1.0 mph1.6 kmh 30.33 in1027.1 mb 0.00 in0.0 mm 0.00 in0.0 mm 0.00 in0.0 mm
06:22 AM 24.7°F-4.1°C 9.2°F-12.7°C 51% Calm Calm 1.0 mph1.6 kmh 30.33 in1027.1 mb 0.00 in0.0 mm 0.00 in0.0 mm 0.00 in0.0 mm
06:24 AM 24.7°F-4.1°C 9.2°F-12.7°C 51% Calm Calm 1.0 mph1.6 kmh 30.33 in1027.1 mb 0.00 in0.0 mm 0.00 in0.0 mm 0.00 in0.0 mm
06:26 AM 24.7°F-4.1°C 9.2°F-12.7°C 51% Calm Calm 1.0 mph1.6 kmh 30.33 in1027.1 mb 0.00 in0.0 mm 0.00 in0.0 mm 0.00 in0.0 mm
06:28 AM 24.7°F-4.1°C 9.2°F-12.7°C 51% Calm Calm 1.0 mph1.6 kmh 30.34 in1027.4 mb 0.00 in0.0 mm 0.00 in0.0 mm 0.00 in0.0 mm
06:30 AM 24.7°F-4.1°C 9.6°F-12.4°C 52% Calm Calm 1.0 mph1.6 kmh 30.34 in1027.4 mb 0.00 in0.0 mm 0.00 in0.0 mm 0.00 in0.0 mm
06:34 AM 24.7°F-4.1°C 9.2°F-12.7°C 51% Calm Calm -- 30.34 in1027.4 mb 0.00 in0.0 mm 0.00 in0.0 mm 0.00 in0.0 mm
06:36 AM 24.7°F-4.1°C 9.2°F-12.7°C 51% Calm Calm -- 30.34 in1027.4 mb 0.00 in0.0 mm 0.00 in0.0 mm 0.00 in0.0 mm
06:38 AM 24.7°F-4.1°C 9.2°F-12.7°C 51% Calm Calm -- 30.34 in1027.4 mb 0.00 in0.0 mm 0.00 in0.0 mm 0.00 in0.0 mm
06:40 AM 24.7°F-4.1°C 9.6°F-12.4°C 52% Calm Calm -- 30.34 in1027.4 mb 0.00 in0.0 mm 0.00 in0.0 mm 0.00 in0.0 mm
06:42 AM 24.7°F-4.1°C 10.0°F-12.2°C 53% Calm Calm -- 30.34 in1027.4 mb 0.00 in0.0 mm 0.00 in0.0 mm 0.00 in0.0 mm
06:44 AM 24.7°F-4.1°C 10.0°F-12.2°C 53% Calm Calm -- 30.34 in1027.4 mb 0.00 in0.0 mm 0.00 in0.0 mm 0.00 in0.0 mm
06:46 AM 24.7°F-4.1°C 10.0°F-12.2°C 53% Calm Calm -- 30.34 in1027.4 mb 0.00 in0.0 mm 0.00 in0.0 mm 0.00 in0.0 mm
06:48 AM 24.7°F-4.1°C 10.0°F-12.2°C 53% Calm Calm -- 30.34 in1027.4 mb 0.00 in0.0 mm 0.00 in0.0 mm 0.00 in0.0 mm
06:50 AM 24.7°F-4.1°C 10.4°F-12.0°C 54% Calm Calm -- 30.34 in1027.4 mb 0.00 in0.0 mm 0.00 in0.0 mm 0.00 in0.0 mm
06:52 AM 24.7°F-4.1°C 10.4°F-12.0°C 54% Calm Calm -- 30.34 in1027.4 mb 0.00 in0.0 mm 0.00 in0.0 mm 0.00 in0.0 mm
06:54 AM 24.7°F-4.1°C 10.4°F-12.0°C 54% Calm Calm -- 30.34 in1027.4 mb 0.00 in0.0 mm 0.00 in0.0 mm 0.00 in0.0 mm
06:56 AM 24.7°F-4.1°C 10.0°F-12.2°C 53% Calm Calm -- 30.34 in1027.4 mb 0.00 in0.0 mm 0.00 in0.0 mm 0.00 in0.0 mm
06:58 AM 24.8°F-4.0°C 9.3°F-12.6°C 51% Calm Calm -- 30.34 in1027.4 mb 0.00 in0.0 mm 0.00 in0.0 mm 0.00 in0.0 mm
07:02 AM 24.8°F-4.0°C 9.3°F-12.6°C 51% Calm Calm -- 30.34 in1027.4 mb 0.00 in0.0 mm 0.00 in0.0 mm 0.00 in0.0 mm
07:04 AM 24.8°F-4.0°C 10.1°F-12.2°C 53% Calm Calm -- 30.35 in1027.8 mb 0.00 in0.0 mm 0.00 in0.0 mm 0.00 in0.0 mm
07:06 AM 24.8°F-4.0°C 10.9°F-11.7°C 55% Calm Calm -- 30.35 in1027.8 mb 0.00 in0.0 mm 0.00 in0.0 mm 0.00 in0.0 mm
07:08 AM 24.8°F-4.0°C 11.3°F-11.5°C 56% Calm Calm -- 30.35 in1027.8 mb 0.00 in0.0 mm 0.00 in0.0 mm 0.00 in0.0 mm
07:10 AM 24.7°F-4.1°C 10.9°F-11.7°C 55% Calm Calm -- 30.35 in1027.8 mb 0.00 in0.0 mm 0.00 in0.0 mm 0.00 in0.0 mm
07:12 AM 24.8°F-4.0°C 11.3°F-11.5°C 56% Calm Calm -- 30.35 in1027.8 mb 0.00 in0.0 mm 0.00 in0.0 mm 0.00 in0.0 mm
07:14 AM 24.7°F-4.1°C 11.7°F-11.3°C 57% 1.0 mph NNE1.6 kmh NNE 1.0 mph1.6 kmh 30.35 in1027.8 mb 0.00 in0.0 mm 0.00 in0.0 mm 0.00 in0.0 mm
07:16 AM 24.7°F-4.1°C 12.4°F-10.9°C 59% Calm Calm 1.0 mph1.6 kmh 30.35 in1027.8 mb 0.00 in0.0 mm 0.00 in0.0 mm 0.00 in0.0 mm
07:18 AM 24.7°F-4.1°C 12.8°F-10.7°C 60% Calm Calm 1.0 mph1.6 kmh 30.35 in1027.8 mb 0.00 in0.0 mm 0.00 in0.0 mm 0.00 in0.0 mm
07:20 AM 24.7°F-4.1°C 13.6°F-10.2°C 62% Calm Calm 1.0 mph1.6 kmh 30.35 in1027.8 mb 0.00 in0.0 mm 0.00 in0.0 mm 0.00 in0.0 mm
07:22 AM 24.6°F-4.1°C 14.2°F-9.9°C 64% Calm Calm 1.0 mph1.6 kmh 30.35 in1027.8 mb 0.00 in0.0 mm 0.00 in0.0 mm 0.00 in0.0 mm
07:24 AM 24.5°F-4.2°C 14.1°F-9.9°C 64% Calm Calm 1.0 mph1.6 kmh 30.35 in1027.8 mb 0.00 in0.0 mm 0.00 in0.0 mm 0.00 in0.0 mm
07:26 AM 24.5°F-4.2°C 14.4°F-9.8°C 65% Calm Calm 1.0 mph1.6 kmh 30.35 in1027.8 mb 0.00 in0.0 mm 0.00 in0.0 mm 0.00 in0.0 mm
07:28 AM 24.4°F-4.2°C 14.7°F-9.6°C 66% Calm Calm 1.0 mph1.6 kmh 30.35 in1027.8 mb 0.00 in0.0 mm 0.00 in0.0 mm 0.00 in0.0 mm
07:30 AM 24.4°F-4.2°C 15.0°F-9.4°C 67% Calm Calm 1.0 mph1.6 kmh 30.35 in1027.8 mb 0.00 in0.0 mm 0.00 in0.0 mm 0.00 in0.0 mm
07:34 AM 24.3°F-4.3°C 14.9°F-9.5°C 67% Calm Calm -- 30.35 in1027.8 mb 0.00 in0.0 mm 0.00 in0.0 mm 0.00 in0.0 mm
07:36 AM 24.2°F-4.3°C 14.8°F-9.6°C 67% Calm Calm -- 30.35 in1027.8 mb 0.00 in0.0 mm 0.00 in0.0 mm 0.00 in0.0 mm
07:38 AM 24.2°F-4.3°C 15.2°F-9.3°C 68% Calm Calm -- 30.35 in1027.8 mb 0.00 in0.0 mm 0.00 in0.0 mm 0.00 in0.0 mm
07:40 AM 24.1°F-4.4°C 15.1°F-9.4°C 68% Calm Calm -- 30.35 in1027.8 mb 0.00 in0.0 mm 0.00 in0.0 mm 0.00 in0.0 mm
07:42 AM 24.0°F-4.4°C 15.0°F-9.4°C 68% Calm Calm -- 30.35 in1027.8 mb 0.00 in0.0 mm 0.00 in0.0 mm 0.00 in0.0 mm
07:44 AM 24.0°F-4.4°C 15.3°F-9.3°C 69% Calm Calm -- 30.35 in1027.8 mb 0.00 in0.0 mm 0.00 in0.0 mm 0.00 in0.0 mm
07:46 AM 24.0°F-4.4°C 15.3°F-9.3°C 69% Calm Calm -- 30.36 in1028.1 mb 0.00 in0.0 mm 0.00 in0.0 mm 0.00 in0.0 mm
07:48 AM 24.0°F-4.4°C 15.3°F-9.3°C 69% Calm Calm -- 30.36 in1028.1 mb 0.00 in0.0 mm 0.00 in0.0 mm 0.00 in0.0 mm
07:50 AM 23.9°F-4.5°C 15.9°F-8.9°C 71% Calm Calm -- 30.36 in1028.1 mb 0.00 in0.0 mm 0.00 in0.0 mm 0.00 in0.0 mm
07:52 AM 23.9°F-4.5°C 15.9°F-8.9°C 71% Calm Calm -- 30.37 in1028.4 mb 0.00 in0.0 mm 0.00 in0.0 mm 0.00 in0.0 mm
07:54 AM 23.9°F-4.5°C 15.9°F-8.9°C 71% Calm Calm -- 30.37 in1028.4 mb 0.00 in0.0 mm 0.00 in0.0 mm 0.00 in0.0 mm
07:56 AM 23.8°F-4.6°C 16.4°F-8.7°C 73% Calm Calm -- 30.36 in1028.1 mb 0.00 in0.0 mm 0.00 in0.0 mm 0.00 in0.0 mm
07:58 AM 23.8°F-4.6°C 16.4°F-8.7°C 73% Calm Calm -- 30.37 in1028.4 mb 0.00 in0.0 mm 0.00 in0.0 mm 0.00 in0.0 mm
08:00 AM 23.8°F-4.6°C 16.7°F-8.5°C 74% Calm Calm -- 30.37 in1028.4 mb 0.00 in0.0 mm 0.00 in0.0 mm 0.00 in0.0 mm
08:02 AM 23.8°F-4.6°C 17.1°F-8.3°C 75% Calm Calm -- 30.37 in1028.4 mb 0.00 in0.0 mm 0.00 in0.0 mm 0.00 in0.0 mm
08:04 AM 23.7°F-4.6°C 17.0°F-8.3°C 75% Calm Calm -- 30.37 in1028.4 mb 0.00 in0.0 mm 0.00 in0.0 mm 0.00 in0.0 mm
08:06 AM 23.7°F-4.6°C 17.0°F-8.3°C 75% Calm Calm -- 30.37 in1028.4 mb 0.00 in0.0 mm 0.00 in0.0 mm 0.00 in0.0 mm
08:08 AM 23.7°F-4.6°C 17.0°F-8.3°C 75% Calm Calm -- 30.37 in1028.4 mb 0.00 in0.0 mm 0.00 in0.0 mm 0.00 in0.0 mm
08:10 AM 23.6°F-4.7°C 17.2°F-8.2°C 76% Calm Calm -- 30.37 in1028.4 mb 0.00 in0.0 mm 0.00 in0.0 mm 0.00 in0.0 mm
08:12 AM 23.6°F-4.7°C 17.2°F-8.2°C 76% Calm Calm -- 30.37 in1028.4 mb 0.00 in0.0 mm 0.00 in0.0 mm 0.00 in0.0 mm
08:14 AM 23.6°F-4.7°C 17.2°F-8.2°C 76% Calm Calm -- 30.37 in1028.4 mb 0.00 in0.0 mm 0.00 in0.0 mm 0.00 in0.0 mm
08:16 AM 23.6°F-4.7°C 17.5°F-8.1°C 77% Calm Calm -- 30.37 in1028.4 mb 0.00 in0.0 mm 0.00 in0.0 mm 0.00 in0.0 mm
08:18 AM 23.6°F-4.7°C 17.5°F-8.1°C 77% Calm Calm -- 30.36 in1028.1 mb 0.00 in0.0 mm 0.00 in0.0 mm 0.00 in0.0 mm
08:20 AM 23.6°F-4.7°C 17.5°F-8.1°C 77% Calm Calm -- 30.37 in1028.4 mb 0.00 in0.0 mm 0.00 in0.0 mm 0.00 in0.0 mm
08:22 AM 23.6°F-4.7°C 17.8°F-7.9°C 78% Calm Calm -- 30.36 in1028.1 mb 0.00 in0.0 mm 0.00 in0.0 mm 0.00 in0.0 mm
08:24 AM 23.6°F-4.7°C 17.8°F-7.9°C 78% Calm Calm -- 30.36 in1028.1 mb 0.00 in0.0 mm 0.00 in0.0 mm 0.00 in0.0 mm
08:26 AM 23.6°F-4.7°C 18.1°F-7.7°C 79% Calm Calm -- 30.36 in1028.1 mb 0.00 in0.0 mm 0.00 in0.0 mm 0.00 in0.0 mm
08:28 AM 23.6°F-4.7°C 18.1°F-7.7°C 79% Calm Calm -- 30.37 in1028.4 mb 0.00 in0.0 mm 0.00 in0.0 mm 0.00 in0.0 mm
08:30 AM 23.5°F-4.7°C 18.0°F-7.8°C 79% Calm Calm -- 30.37 in1028.4 mb 0.00 in0.0 mm 0.00 in0.0 mm 0.00 in0.0 mm
08:34 AM 23.5°F-4.7°C 18.0°F-7.8°C 79% Calm Calm -- 30.36 in1028.1 mb 0.00 in0.0 mm 0.00 in0.0 mm 0.00 in0.0 mm
08:36 AM 23.5°F-4.7°C 18.0°F-7.8°C 79% Calm Calm -- 30.36 in1028.1 mb 0.00 in0.0 mm 0.00 in0.0 mm 0.00 in0.0 mm
08:38 AM 23.5°F-4.7°C 18.0°F-7.8°C 79% Calm Calm 1.0 mph1.6 kmh 30.37 in1028.4 mb 0.00 in0.0 mm 0.00 in0.0 mm 0.00 in0.0 mm
08:40 AM 23.5°F-4.7°C 18.3°F-7.6°C 80% Calm Calm 1.0 mph1.6 kmh 30.37 in1028.4 mb 0.00 in0.0 mm 0.00 in0.0 mm 0.00 in0.0 mm
08:42 AM 23.5°F-4.7°C 18.3°F-7.6°C 80% 1.0 mph NNE1.6 kmh NNE 1.0 mph1.6 kmh 30.37 in1028.4 mb 0.00 in0.0 mm 0.00 in0.0 mm 0.00 in0.0 mm
08:44 AM 23.5°F-4.7°C 18.3°F-7.6°C 80% Calm Calm 1.0 mph1.6 kmh 30.37 in1028.4 mb 0.00 in0.0 mm 0.00 in0.0 mm 0.00 in0.0 mm
08:46 AM 23.5°F-4.7°C 18.3°F-7.6°C 80% Calm Calm 1.0 mph1.6 kmh 30.38 in1028.8 mb 0.00 in0.0 mm 0.00 in0.0 mm 0.00 in0.0 mm
08:48 AM 23.5°F-4.7°C 18.3°F-7.6°C 80% Calm Calm 1.0 mph1.6 kmh 30.38 in1028.8 mb 0.00 in0.0 mm 0.00 in0.0 mm 0.00 in0.0 mm
08:50 AM 23.5°F-4.7°C 18.3°F-7.6°C 80% Calm Calm 1.0 mph1.6 kmh 30.38 in1028.8 mb 0.00 in0.0 mm 0.00 in0.0 mm 0.00 in0.0 mm
08:52 AM 23.5°F-4.7°C 18.3°F-7.6°C 80% Calm Calm 1.0 mph1.6 kmh 30.38 in1028.8 mb 0.00 in0.0 mm 0.00 in0.0 mm 0.00 in0.0 mm
08:54 AM 23.6°F-4.7°C 18.6°F-7.4°C 81% Calm Calm 1.0 mph1.6 kmh 30.37 in1028.4 mb 0.00 in0.0 mm 0.00 in0.0 mm 0.00 in0.0 mm
08:56 AM 23.6°F-4.7°C 18.6°F-7.4°C 81% Calm Calm 1.0 mph1.6 kmh 30.37 in1028.4 mb 0.00 in0.0 mm 0.00 in0.0 mm 0.00 in0.0 mm
08:58 AM 23.6°F-4.7°C 18.6°F-7.4°C 81% Calm Calm 1.0 mph1.6 kmh 30.38 in1028.8 mb 0.00 in0.0 mm 0.00 in0.0 mm 0.00 in0.0 mm
09:00 AM 23.6°F-4.7°C 18.6°F-7.4°C 81% Calm Calm 1.0 mph1.6 kmh 30.38 in1028.8 mb 0.00 in0.0 mm 0.00 in0.0 mm 0.00 in0.0 mm
09:02 AM 23.6°F-4.7°C 18.6°F-7.4°C 81% Calm Calm -- 30.38 in1028.8 mb 0.00 in0.0 mm 0.00 in0.0 mm 0.00 in0.0 mm
09:04 AM 23.7°F-4.6°C 18.7°F-7.4°C 81% Calm Calm -- 30.38 in1028.8 mb 0.00 in0.0 mm 0.00 in0.0 mm 0.00 in0.0 mm
09:06 AM 23.6°F-4.7°C 18.6°F-7.4°C 81% Calm Calm -- 30.38 in1028.8 mb 0.00 in0.0 mm 0.00 in0.0 mm 0.00 in0.0 mm
09:08 AM 23.7°F-4.6°C 18.7°F-7.4°C 81% Calm Calm -- 30.38 in1028.8 mb 0.00 in0.0 mm 0.00 in0.0 mm 0.00 in0.0 mm
09:10 AM 23.7°F-4.6°C 18.7°F-7.4°C 81% Calm Calm 2.0 mph3.2 kmh 30.38 in1028.8 mb 0.00 in0.0 mm 0.00 in0.0 mm 0.00 in0.0 mm
09:12 AM 23.8°F-4.6°C 18.8°F-7.3°C 81% Calm Calm 2.0 mph3.2 kmh 30.38 in1028.8 mb 0.00 in0.0 mm 0.00 in0.0 mm 0.00 in0.0 mm
09:14 AM 23.8°F-4.6°C 18.8°F-7.3°C 81% Calm Calm 2.0 mph3.2 kmh 30.38 in1028.8 mb 0.00 in0.0 mm 0.00 in0.0 mm 0.00 in0.0 mm
09:16 AM 23.8°F-4.6°C 18.8°F-7.3°C 81% Calm Calm 2.0 mph3.2 kmh 30.38 in1028.8 mb 0.00 in0.0 mm 0.00 in0.0 mm 0.00 in0.0 mm
09:18 AM 23.9°F-4.5°C 18.9°F-7.3°C 81% Calm Calm 2.0 mph3.2 kmh 30.38 in1028.8 mb 0.00 in0.0 mm 0.00 in0.0 mm 0.00 in0.0 mm
09:20 AM 23.9°F-4.5°C 18.9°F-7.3°C 81% Calm Calm 2.0 mph3.2 kmh 30.38 in1028.8 mb 0.00 in0.0 mm 0.00 in0.0 mm 0.00 in0.0 mm
09:22 AM 24.0°F-4.4°C 19.3°F-7.1°C 82% Calm Calm 2.0 mph3.2 kmh 30.38 in1028.8 mb 0.00 in0.0 mm 0.00 in0.0 mm 0.00 in0.0 mm
09:24 AM 24.0°F-4.4°C 19.3°F-7.1°C 82% Calm Calm 2.0 mph3.2 kmh 30.38 in1028.8 mb 0.00 in0.0 mm 0.00 in0.0 mm 0.00 in0.0 mm
09:26 AM 24.1°F-4.4°C 19.4°F-7.0°C 82% Calm Calm 2.0 mph3.2 kmh 30.38 in1028.8 mb 0.00 in0.0 mm 0.00 in0.0 mm 0.00 in0.0 mm
09:28 AM 24.2°F-4.3°C 19.5°F-6.9°C 82% Calm Calm 2.0 mph3.2 kmh 30.38 in1028.8 mb 0.00 in0.0 mm 0.00 in0.0 mm 0.00 in0.0 mm
09:30 AM 24.2°F-4.3°C 19.5°F-6.9°C 82% Calm Calm 2.0 mph3.2 kmh 30.38 in1028.8 mb 0.00 in0.0 mm 0.00 in0.0 mm 0.00 in0.0 mm
09:34 AM 24.2°F-4.3°C 19.2°F-7.1°C 81% Calm Calm -- 30.38 in1028.8 mb 0.00 in0.0 mm 0.00 in0.0 mm 0.00 in0.0 mm
09:36 AM 24.3°F-4.3°C 19.3°F-7.1°C 81% Calm Calm -- 30.38 in1028.8 mb 0.00 in0.0 mm 0.00 in0.0 mm 0.00 in0.0 mm
09:38 AM 24.3°F-4.3°C 19.3°F-7.1°C 81% Calm Calm -- 30.38 in1028.8 mb 0.00 in0.0 mm 0.00 in0.0 mm 0.00 in0.0 mm
09:40 AM 24.3°F-4.3°C 19.3°F-7.1°C 81% Calm Calm -- 30.38 in1028.8 mb 0.00 in0.0 mm 0.00 in0.0 mm 0.00 in0.0 mm
09:42 AM 24.3°F-4.3°C 19.3°F-7.1°C 81% Calm Calm -- 30.38 in1028.8 mb 0.00 in0.0 mm 0.00 in0.0 mm 0.00 in0.0 mm
09:44 AM 24.3°F-4.3°C 19.3°F-7.1°C 81% Calm Calm 1.0 mph1.6 kmh 30.38 in1028.8 mb 0.00 in0.0 mm 0.00 in0.0 mm 0.00 in0.0 mm
09:46 AM 24.4°F-4.2°C 19.4°F-7.0°C 81% Calm Calm 1.0 mph1.6 kmh 30.38 in1028.8 mb 0.00 in0.0 mm 0.00 in0.0 mm 0.00 in0.0 mm
09:48 AM 24.4°F-4.2°C 19.4°F-7.0°C 81% Calm Calm 1.0 mph1.6 kmh 30.38 in1028.8 mb 0.00 in0.0 mm 0.00 in0.0 mm 0.00 in0.0 mm
09:50 AM 24.5°F-4.2°C 19.5°F-6.9°C 81% Calm Calm 1.0 mph1.6 kmh 30.38 in1028.8 mb 0.00 in0.0 mm 0.00 in0.0 mm 0.00 in0.0 mm
09:52 AM 24.5°F-4.2°C 19.5°F-6.9°C 81% Calm Calm 1.0 mph1.6 kmh 30.38 in1028.8 mb 0.00 in0.0 mm 0.00 in0.0 mm 0.00 in0.0 mm
09:54 AM 24.6°F-4.1°C 19.9°F-6.7°C 82% Calm Calm 1.0 mph1.6 kmh 30.39 in1029.1 mb 0.00 in0.0 mm 0.00 in0.0 mm 0.00 in0.0 mm
09:56 AM 24.7°F-4.1°C 20.0°F-6.7°C 82% 2.0 mph NNE3.2 kmh NNE 2.0 mph3.2 kmh 30.39 in1029.1 mb 0.00 in0.0 mm 0.00 in0.0 mm 0.00 in0.0 mm
09:58 AM 24.8°F-4.0°C 20.1°F-6.6°C 82% Calm Calm 2.0 mph3.2 kmh 30.38 in1028.8 mb 0.00 in0.0 mm 0.00 in0.0 mm 0.00 in0.0 mm
10:00 AM 24.8°F-4.0°C 20.1°F-6.6°C 82% Calm Calm 2.0 mph3.2 kmh 30.38 in1028.8 mb 0.00 in0.0 mm 0.00 in0.0 mm 0.00 in0.0 mm
10:02 AM 24.9°F-3.9°C 20.2°F-6.6°C 82% Calm Calm -- 30.38 in1028.8 mb 0.00 in0.0 mm 0.00 in0.0 mm 0.00 in0.0 mm
10:04 AM 25.0°F-3.9°C 20.3°F-6.5°C 82% Calm Calm 1.0 mph1.6 kmh 30.38 in1028.8 mb 0.00 in0.0 mm 0.00 in0.0 mm 0.00 in0.0 mm
10:06 AM 25.0°F-3.9°C 20.0°F-6.7°C 81% Calm Calm 1.0 mph1.6 kmh 30.38 in1028.8 mb 0.00 in0.0 mm 0.00 in0.0 mm 0.00 in0.0 mm
10:08 AM 25.1°F-3.8°C 20.1°F-6.6°C 81% Calm Calm 1.0 mph1.6 kmh 30.38 in1028.8 mb 0.00 in0.0 mm 0.00 in0.0 mm 0.00 in0.0 mm
10:10 AM 25.1°F-3.8°C 20.1°F-6.6°C 81% Calm Calm 1.0 mph1.6 kmh 30.38 in1028.8 mb 0.00 in0.0 mm 0.00 in0.0 mm 0.00 in0.0 mm
10:12 AM 25.2°F-3.8°C 20.2°F-6.6°C 81% Calm Calm 1.0 mph1.6 kmh 30.38 in1028.8 mb 0.00 in0.0 mm 0.00 in0.0 mm 0.00 in0.0 mm
10:14 AM 25.2°F-3.8°C 20.2°F-6.6°C 81% Calm Calm 1.0 mph1.6 kmh 30.38 in1028.8 mb 0.00 in0.0 mm 0.00 in0.0 mm 0.00 in0.0 mm
10:16 AM 25.2°F-3.8°C 19.9°F-6.7°C 80% Calm Calm 1.0 mph1.6 kmh 30.38 in1028.8 mb 0.00 in0.0 mm 0.00 in0.0 mm 0.00 in0.0 mm
10:18 AM 25.3°F-3.7°C 20.0°F-6.7°C 80% Calm Calm 1.0 mph1.6 kmh 30.38 in1028.8 mb 0.00 in0.0 mm 0.00 in0.0 mm 0.00 in0.0 mm
10:20 AM 25.4°F-3.7°C 20.4°F-6.4°C 81% Calm Calm 1.0 mph1.6 kmh 30.38 in1028.8 mb 0.00 in0.0 mm 0.00 in0.0 mm 0.00 in0.0 mm
10:22 AM 25.5°F-3.6°C 20.5°F-6.4°C 81% Calm Calm 3.0 mph4.8 kmh 30.37 in1028.4 mb 0.00 in0.0 mm 0.00 in0.0 mm 0.00 in0.0 mm
10:24 AM 25.6°F-3.6°C 20.6°F-6.3°C 81% Calm Calm 3.0 mph4.8 kmh 30.37 in1028.4 mb 0.00 in0.0 mm 0.00 in0.0 mm 0.00 in0.0 mm
10:26 AM 25.7°F-3.5°C 20.7°F-6.3°C 81% 1.0 mph NE1.6 kmh NE 4.0 mph6.4 kmh 30.37 in1028.4 mb 0.00 in0.0 mm 0.00 in0.0 mm 0.00 in0.0 mm
10:28 AM 25.9°F-3.4°C 20.9°F-6.2°C 81% Calm Calm 4.0 mph6.4 kmh 30.37 in1028.4 mb 0.00 in0.0 mm 0.00 in0.0 mm 0.00 in0.0 mm
10:30 AM 26.0°F-3.3°C 20.7°F-6.3°C 80% Calm Calm 4.0 mph6.4 kmh 30.37 in1028.4 mb 0.00 in0.0 mm 0.00 in0.0 mm 0.00 in0.0 mm
10:34 AM 26.2°F-3.2°C 20.9°F-6.2°C 80% Calm Calm -- 30.37 in1028.4 mb 0.00 in0.0 mm 0.00 in0.0 mm 0.00 in0.0 mm
10:36 AM 26.3°F-3.2°C 21.0°F-6.1°C 80% Calm Calm -- 30.37 in1028.4 mb 0.00 in0.0 mm 0.00 in0.0 mm 0.00 in0.0 mm
10:38 AM 26.4°F-3.1°C 21.1°F-6.1°C 80% Calm Calm 2.0 mph3.2 kmh 30.37 in1028.4 mb 0.00 in0.0 mm 0.00 in0.0 mm 0.00 in0.0 mm
10:40 AM 26.6°F-3.0°C 21.3°F-5.9°C 80% Calm Calm 2.0 mph3.2 kmh 30.37 in1028.4 mb 0.00 in0.0 mm 0.00 in0.0 mm 0.00 in0.0 mm
10:42 AM 26.7°F-2.9°C 21.4°F-5.9°C 80% 2.0 mph NNE3.2 kmh NNE 3.0 mph4.8 kmh 30.36 in1028.1 mb 0.00 in0.0 mm 0.00 in0.0 mm 0.00 in0.0 mm
10:44 AM 26.8°F-2.9°C 21.5°F-5.8°C 80% Calm Calm 3.0 mph4.8 kmh 30.37 in1028.4 mb 0.00 in0.0 mm 0.00 in0.0 mm 0.00 in0.0 mm
10:46 AM 27.0°F-2.8°C 21.7°F-5.7°C 80% Calm Calm 3.0 mph4.8 kmh 30.37 in1028.4 mb 0.00 in0.0 mm 0.00 in0.0 mm 0.00 in0.0 mm
10:48 AM 27.1°F-2.7°C 21.5°F-5.8°C 79% Calm Calm 3.0 mph4.8 kmh 30.37 in1028.4 mb 0.00 in0.0 mm 0.00 in0.0 mm 0.00 in0.0 mm
10:50 AM 27.2°F-2.7°C 21.6°F-5.8°C 79% Calm Calm 3.0 mph4.8 kmh 30.37 in1028.4 mb 0.00 in0.0 mm 0.00 in0.0 mm 0.00 in0.0 mm
10:52 AM 27.4°F-2.6°C 21.8°F-5.7°C 79% 1.0 mph NE1.6 kmh NE 4.0 mph6.4 kmh 30.37 in1028.4 mb 0.00 in0.0 mm 0.00 in0.0 mm 0.00 in0.0 mm
10:54 AM 27.5°F-2.5°C 21.9°F-5.6°C 79% Calm Calm 4.0 mph6.4 kmh 30.37 in1028.4 mb 0.00 in0.0 mm 0.00 in0.0 mm 0.00 in0.0 mm
10:56 AM 27.6°F-2.4°C 22.0°F-5.6°C 79% Calm Calm 4.0 mph6.4 kmh 30.37 in1028.4 mb 0.00 in0.0 mm 0.00 in0.0 mm 0.00 in0.0 mm
10:58 AM 27.7°F-2.4°C 22.1°F-5.5°C 79% Calm Calm 4.0 mph6.4 kmh 30.37 in1028.4 mb 0.00 in0.0 mm 0.00 in0.0 mm 0.00 in0.0 mm
11:00 AM 27.8°F-2.3°C 21.9°F-5.6°C 78% Calm Calm 4.0 mph6.4 kmh 30.37 in1028.4 mb 0.00 in0.0 mm 0.00 in0.0 mm 0.00 in0.0 mm
11:02 AM 27.9°F-2.3°C 21.9°F-5.6°C 78% Calm Calm -- 30.37 in1028.4 mb 0.00 in0.0 mm 0.00 in0.0 mm 0.00 in0.0 mm
11:04 AM 27.9°F-2.3°C 21.6°F-5.8°C 77% Calm Calm 4.0 mph6.4 kmh 30.36 in1028.1 mb 0.00 in0.0 mm 0.00 in0.0 mm 0.00 in0.0 mm
11:06 AM 28.0°F-2.2°C 21.7°F-5.7°C 77% Calm Calm 4.0 mph6.4 kmh 30.36 in1028.1 mb 0.00 in0.0 mm 0.00 in0.0 mm 0.00 in0.0 mm
11:08 AM 28.1°F-2.2°C 21.8°F-5.7°C 77% Calm Calm 4.0 mph6.4 kmh 30.36 in1028.1 mb 0.00 in0.0 mm 0.00 in0.0 mm 0.00 in0.0 mm
11:10 AM 28.2°F-2.1°C 21.9°F-5.6°C 77% Calm Calm 4.0 mph6.4 kmh 30.36 in1028.1 mb 0.00 in0.0 mm 0.00 in0.0 mm 0.00 in0.0 mm
11:12 AM 28.3°F-2.1°C 22.0°F-5.6°C 77% Calm Calm 4.0 mph6.4 kmh 30.36 in1028.1 mb 0.00 in0.0 mm 0.00 in0.0 mm 0.00 in0.0 mm
11:14 AM 28.4°F-2.0°C 22.4°F-5.3°C 78% 5.0 mph N8.0 kmh N 5.0 mph8.0 kmh 30.36 in1028.1 mb 0.00 in0.0 mm 0.00 in0.0 mm 0.00 in0.0 mm
11:16 AM 28.6°F-1.9°C 22.6°F-5.2°C 78% Calm Calm 5.0 mph8.0 kmh 30.37 in1028.4 mb 0.00 in0.0 mm 0.00 in0.0 mm 0.00 in0.0 mm
11:18 AM 28.6°F-1.9°C 22.3°F-5.4°C 77% Calm Calm 5.0 mph8.0 kmh 30.36 in1028.1 mb 0.00 in0.0 mm 0.00 in0.0 mm 0.00 in0.0 mm
11:20 AM 28.7°F-1.8°C 22.1°F-5.5°C 76% Calm Calm 5.0 mph8.0 kmh 30.37 in1028.4 mb 0.00 in0.0 mm 0.00 in0.0 mm 0.00 in0.0 mm
11:22 AM 28.8°F-1.8°C 22.5°F-5.3°C 77% Calm Calm 5.0 mph8.0 kmh 30.37 in1028.4 mb 0.00 in0.0 mm 0.00 in0.0 mm 0.00 in0.0 mm
11:24 AM 29.0°F-1.7°C 23.0°F-5.0°C 78% Calm Calm 5.0 mph8.0 kmh 30.37 in1028.4 mb 0.00 in0.0 mm 0.00 in0.0 mm 0.00 in0.0 mm
11:26 AM 29.1°F-1.6°C 23.4°F-4.8°C 79% 3.0 mph NE4.8 kmh NE 5.0 mph8.0 kmh 30.36 in1028.1 mb 0.00 in0.0 mm 0.00 in0.0 mm 0.00 in0.0 mm
11:28 AM 29.2°F-1.6°C 22.9°F-5.1°C 77% Calm Calm 5.0 mph8.0 kmh 30.36 in1028.1 mb 0.00 in0.0 mm 0.00 in0.0 mm 0.00 in0.0 mm
11:30 AM 29.3°F-1.5°C 23.0°F-5.0°C 77% Calm Calm 5.0 mph8.0 kmh 30.36 in1028.1 mb 0.00 in0.0 mm 0.00 in0.0 mm 0.00 in0.0 mm
11:34 AM 29.4°F-1.4°C 22.5°F-5.3°C 75% Calm Calm 2.0 mph3.2 kmh 30.36 in1028.1 mb 0.00 in0.0 mm 0.00 in0.0 mm 0.00 in0.0 mm
11:36 AM 29.4°F-1.4°C 22.2°F-5.4°C 74% Calm Calm 2.0 mph3.2 kmh 30.36 in1028.1 mb 0.00 in0.0 mm 0.00 in0.0 mm 0.00 in0.0 mm
11:38 AM 29.5°F-1.4°C 22.6°F-5.2°C 75% Calm Calm 2.0 mph3.2 kmh 30.36 in1028.1 mb 0.00 in0.0 mm 0.00 in0.0 mm 0.00 in0.0 mm
11:40 AM 29.6°F-1.3°C 22.7°F-5.2°C 75% Calm Calm 2.0 mph3.2 kmh 30.36 in1028.1 mb 0.00 in0.0 mm 0.00 in0.0 mm 0.00 in0.0 mm
11:42 AM 29.7°F-1.3°C 23.1°F-4.9°C 76% 3.0 mph NE4.8 kmh NE 3.0 mph4.8 kmh 30.36 in1028.1 mb 0.00 in0.0 mm 0.00 in0.0 mm 0.00 in0.0 mm
11:44 AM 29.9°F-1.2°C 23.3°F-4.8°C 76% Calm Calm 4.0 mph6.4 kmh 30.36 in1028.1 mb 0.00 in0.0 mm 0.00 in0.0 mm 0.00 in0.0 mm
11:46 AM 30.0°F-1.1°C 23.1°F-4.9°C 75% 2.0 mph NE3.2 kmh NE 5.0 mph8.0 kmh 30.36 in1028.1 mb 0.00 in0.0 mm 0.00 in0.0 mm 0.00 in0.0 mm
11:48 AM 30.0°F-1.1°C 22.7°F-5.2°C 74% Calm Calm 5.0 mph8.0 kmh 30.35 in1027.8 mb 0.00 in0.0 mm 0.00 in0.0 mm 0.00 in0.0 mm
11:50 AM 30.0°F-1.1°C 22.7°F-5.2°C 74% Calm Calm 5.0 mph8.0 kmh 30.35 in1027.8 mb 0.00 in0.0 mm 0.00 in0.0 mm 0.00 in0.0 mm
11:52 AM 30.1°F-1.1°C 22.8°F-5.1°C 74% Calm Calm 5.0 mph8.0 kmh 30.35 in1027.8 mb 0.00 in0.0 mm 0.00 in0.0 mm 0.00 in0.0 mm
11:54 AM 30.1°F-1.1°C 22.8°F-5.1°C 74% Calm Calm 5.0 mph8.0 kmh 30.35 in1027.8 mb 0.00 in0.0 mm 0.00 in0.0 mm 0.00 in0.0 mm
11:56 AM 30.2°F-1.0°C 22.9°F-5.1°C 74% 3.0 mph NE4.8 kmh NE 5.0 mph8.0 kmh 30.35 in1027.8 mb 0.00 in0.0 mm 0.00 in0.0 mm 0.00 in0.0 mm
11:58 AM 30.3°F-0.9°C 23.0°F-5.0°C 74% Calm Calm 5.0 mph8.0 kmh 30.35 in1027.8 mb 0.00 in0.0 mm 0.00 in0.0 mm 0.00 in0.0 mm
12:00 PM 30.3°F-0.9°C 22.7°F-5.2°C 73% 3.0 mph NE4.8 kmh NE 5.0 mph8.0 kmh 30.35 in1027.8 mb 0.00 in0.0 mm 0.00 in0.0 mm 0.00 in0.0 mm
12:02 PM 30.3°F-0.9°C 22.7°F-5.2°C 73% Calm Calm -- 30.35 in1027.8 mb 0.00 in0.0 mm 0.00 in0.0 mm 0.00 in0.0 mm
12:04 PM 30.2°F-1.0°C 22.6°F-5.2°C 73% Calm Calm -- 30.35 in1027.8 mb 0.00 in0.0 mm 0.00 in0.0 mm 0.00 in0.0 mm
12:06 PM 30.2°F-1.0°C 22.6°F-5.2°C 73% Calm Calm -- 30.36 in1028.1 mb 0.00 in0.0 mm 0.00 in0.0 mm 0.00 in0.0 mm
12:08 PM 30.3°F-0.9°C 22.7°F-5.2°C 73% Calm Calm -- 30.36 in1028.1 mb 0.00 in0.0 mm 0.00 in0.0 mm 0.00 in0.0 mm
12:10 PM 30.3°F-0.9°C 22.7°F-5.2°C 73% Calm Calm -- 30.36 in1028.1 mb 0.00 in0.0 mm 0.00 in0.0 mm 0.00 in0.0 mm
12:12 PM 30.3°F-0.9°C 23.0°F-5.0°C 74% Calm Calm -- 30.36 in1028.1 mb 0.00 in0.0 mm 0.00 in0.0 mm 0.00 in0.0 mm
12:14 PM 30.4°F-0.9°C 23.1°F-4.9°C 74% Calm Calm -- 30.36 in1028.1 mb 0.00 in0.0 mm 0.00 in0.0 mm 0.00 in0.0 mm
12:16 PM 30.5°F-0.8°C 23.2°F-4.9°C 74% Calm Calm -- 30.35 in1027.8 mb 0.00 in0.0 mm 0.00 in0.0 mm 0.00 in0.0 mm
12:18 PM 30.6°F-0.8°C 23.3°F-4.8°C 74% Calm Calm -- 30.35 in1027.8 mb 0.00 in0.0 mm 0.00 in0.0 mm 0.00 in0.0 mm
12:20 PM 30.7°F-0.7°C 23.1°F-4.9°C 73% Calm Calm -- 30.35 in1027.8 mb 0.00 in0.0 mm 0.00 in0.0 mm 0.00 in0.0 mm
12:22 PM 30.7°F-0.7°C 23.1°F-4.9°C 73% Calm Calm -- 30.34 in1027.4 mb 0.00 in0.0 mm 0.00 in0.0 mm 0.00 in0.0 mm
12:24 PM 30.7°F-0.7°C 22.8°F-5.1°C 72% Calm Calm -- 30.34 in1027.4 mb 0.00 in0.0 mm 0.00 in0.0 mm 0.00 in0.0 mm
12:26 PM 30.7°F-0.7°C 23.1°F-4.9°C 73% 3.0 mph NE4.8 kmh NE 3.0 mph4.8 kmh 30.35 in1027.8 mb 0.00 in0.0 mm 0.00 in0.0 mm 0.00 in0.0 mm
12:28 PM 30.7°F-0.7°C 23.1°F-4.9°C 73% Calm Calm 3.0 mph4.8 kmh 30.35 in1027.8 mb 0.00 in0.0 mm 0.00 in0.0 mm 0.00 in0.0 mm
12:30 PM 30.7°F-0.7°C 23.1°F-4.9°C 73% Calm Calm 3.0 mph4.8 kmh 30.35 in1027.8 mb 0.00 in0.0 mm 0.00 in0.0 mm 0.00 in0.0 mm
12:34 PM 30.8°F-0.7°C 23.2°F-4.9°C 73% Calm Calm -- 30.34 in1027.4 mb 0.00 in0.0 mm 0.00 in0.0 mm 0.00 in0.0 mm
12:36 PM 30.8°F-0.7°C 23.2°F-4.9°C 73% Calm Calm -- 30.35 in1027.8 mb 0.00 in0.0 mm 0.00 in0.0 mm 0.00 in0.0 mm
12:38 PM 30.9°F-0.6°C 23.3°F-4.8°C 73% Calm Calm -- 30.35 in1027.8 mb 0.00 in0.0 mm 0.00 in0.0 mm 0.00 in0.0 mm
12:40 PM 31.0°F-0.6°C 23.4°F-4.8°C 73% Calm Calm -- 30.35 in1027.8 mb 0.00 in0.0 mm 0.00 in0.0 mm 0.00 in0.0 mm
12:42 PM 31.0°F-0.6°C 23.4°F-4.8°C 73% Calm Calm -- 30.35 in1027.8 mb 0.00 in0.0 mm 0.00 in0.0 mm 0.00 in0.0 mm
12:44 PM 31.1°F-0.5°C 23.8°F-4.6°C 74% Calm Calm -- 30.35 in1027.8 mb 0.00 in0.0 mm 0.00 in0.0 mm 0.00 in0.0 mm
12:46 PM 31.2°F-0.4°C 23.9°F-4.5°C 74% Calm Calm -- 30.34 in1027.4 mb 0.00 in0.0 mm 0.00 in0.0 mm 0.00 in0.0 mm
12:48 PM 31.2°F-0.4°C 23.9°F-4.5°C 74% Calm Calm -- 30.34 in1027.4 mb 0.00 in0.0 mm 0.00 in0.0 mm 0.00 in0.0 mm
12:50 PM 31.3°F-0.4°C 23.7°F-4.6°C 73% Calm Calm -- 30.34 in1027.4 mb 0.00 in0.0 mm 0.00 in0.0 mm 0.00 in0.0 mm
12:52 PM 31.4°F-0.3°C 23.8°F-4.6°C 73% Calm Calm -- 30.34 in1027.4 mb 0.00 in0.0 mm 0.00 in0.0 mm 0.00 in0.0 mm
12:54 PM 31.5°F-0.3°C 23.9°F-4.5°C 73% Calm Calm -- 30.34 in1027.4 mb 0.00 in0.0 mm 0.00 in0.0 mm 0.00 in0.0 mm
12:56 PM 31.5°F-0.3°C 23.9°F-4.5°C 73% Calm Calm -- 30.34 in1027.4 mb 0.00 in0.0 mm 0.00 in0.0 mm 0.00 in0.0 mm
12:58 PM 31.7°F-0.2°C 24.1°F-4.4°C 73% Calm Calm -- 30.34 in1027.4 mb 0.00 in0.0 mm 0.00 in0.0 mm 0.00 in0.0 mm
01:02 PM 32.0°F0.0°C 24.7°F-4.1°C 74% Calm Calm -- 30.34 in1027.4 mb 0.00 in0.0 mm 0.00 in0.0 mm 0.00 in0.0 mm
01:04 PM 32.2°F0.1°C 24.9°F-3.9°C 74% Calm Calm -- 30.34 in1027.4 mb 0.00 in0.0 mm 0.00 in0.0 mm 0.00 in0.0 mm
01:06 PM 32.4°F0.2°C 25.1°F-3.8°C 74% Calm Calm -- 30.34 in1027.4 mb 0.00 in0.0 mm 0.00 in0.0 mm 0.00 in0.0 mm
01:08 PM 32.5°F0.3°C 24.5°F-4.2°C 72% Calm Calm -- 30.34 in1027.4 mb 0.00 in0.0 mm 0.00 in0.0 mm 0.00 in0.0 mm
01:10 PM 32.6°F0.3°C 24.6°F-4.1°C 72% Calm Calm -- 30.34 in1027.4 mb 0.00 in0.0 mm 0.00 in0.0 mm 0.00 in0.0 mm
01:12 PM 32.7°F0.4°C 24.7°F-4.1°C 72% Calm Calm -- 30.34 in1027.4 mb 0.00 in0.0 mm 0.00 in0.0 mm 0.00 in0.0 mm
01:14 PM 32.8°F0.4°C 24.8°F-4.0°C 72% Calm Calm -- 30.34 in1027.4 mb 0.00 in0.0 mm 0.00 in0.0 mm 0.00 in0.0 mm
01:16 PM 32.8°F0.4°C 24.5°F-4.2°C 71% 2.0 mph NE3.2 kmh NE 3.0 mph4.8 kmh 30.34 in1027.4 mb 0.00 in0.0 mm 0.00 in0.0 mm 0.00 in0.0 mm
01:18 PM 32.8°F0.4°C 24.5°F-4.2°C 71% Calm Calm 3.0 mph4.8 kmh 30.34 in1027.4 mb 0.00 in0.0 mm 0.00 in0.0 mm 0.00 in0.0 mm
01:20 PM 32.8°F0.4°C 24.8°F-4.0°C 72% Calm Calm 3.0 mph4.8 kmh 30.34 in1027.4 mb 0.00 in0.0 mm 0.00 in0.0 mm 0.00 in0.0 mm
01:22 PM 32.8°F0.4°C 24.5°F-4.2°C 71% Calm Calm 3.0 mph4.8 kmh 30.34 in1027.4 mb 0.00 in0.0 mm 0.00 in0.0 mm 0.00 in0.0 mm
01:24 PM 32.9°F0.5°C 24.5°F-4.2°C 71% Calm Calm 3.0 mph4.8 kmh 30.33 in1027.1 mb 0.00 in0.0 mm 0.00 in0.0 mm 0.00 in0.0 mm
01:26 PM 32.9°F0.5°C 26.2°F-3.2°C 76% Calm Calm 3.0 mph4.8 kmh 30.33 in1027.1 mb 0.00 in0.0 mm 0.00 in0.0 mm 0.00 in0.0 mm
01:28 PM 33.0°F0.6°C 25.0°F-3.9°C 72% Calm Calm 3.0 mph4.8 kmh 30.33 in1027.1 mb 0.00 in0.0 mm 0.00 in0.0 mm 0.00 in0.0 mm
01:30 PM 33.1°F0.6°C 25.1°F-3.8°C 72% Calm Calm 3.0 mph4.8 kmh 30.33 in1027.1 mb 0.00 in0.0 mm 0.00 in0.0 mm 0.00 in0.0 mm
01:34 PM 33.4°F0.8°C 25.7°F-3.5°C 73% Calm Calm 3.0 mph4.8 kmh 30.33 in1027.1 mb 0.00 in0.0 mm 0.00 in0.0 mm 0.00 in0.0 mm
01:36 PM 33.6°F0.9°C 25.6°F-3.6°C 72% Calm Calm 3.0 mph4.8 kmh 30.33 in1027.1 mb 0.00 in0.0 mm 0.00 in0.0 mm 0.00 in0.0 mm
01:38 PM 33.7°F0.9°C 25.3°F-3.7°C 71% Calm Calm 3.0 mph4.8 kmh 30.33 in1027.1 mb 0.00 in0.0 mm 0.00 in0.0 mm 0.00 in0.0 mm
01:40 PM 33.8°F1.0°C 25.4°F-3.7°C 71% Calm Calm 3.0 mph4.8 kmh 30.33 in1027.1 mb 0.00 in0.0 mm 0.00 in0.0 mm 0.00 in0.0 mm
01:42 PM 33.9°F1.1°C 25.2°F-3.8°C 70% Calm Calm 3.0 mph4.8 kmh 30.33 in1027.1 mb 0.00 in0.0 mm 0.00 in0.0 mm 0.00 in0.0 mm
01:44 PM 33.9°F1.1°C 25.5°F-3.6°C 71% Calm Calm 3.0 mph4.8 kmh 30.33 in1027.1 mb 0.00 in0.0 mm 0.00 in0.0 mm 0.00 in0.0 mm
01:46 PM 34.0°F1.1°C 25.6°F-3.6°C 71% 2.0 mph NE3.2 kmh NE 3.0 mph4.8 kmh 30.33 in1027.1 mb 0.00 in0.0 mm 0.00 in0.0 mm 0.00 in0.0 mm
01:48 PM 34.1°F1.2°C 25.4°F-3.7°C 70% Calm Calm 3.0 mph4.8 kmh 30.33 in1027.1 mb 0.00 in0.0 mm 0.00 in0.0 mm 0.00 in0.0 mm
01:50 PM 34.2°F1.2°C 25.5°F-3.6°C 70% Calm Calm 3.0 mph4.8 kmh 30.33 in1027.1 mb 0.00 in0.0 mm 0.00 in0.0 mm 0.00 in0.0 mm
01:52 PM 34.2°F1.2°C 25.1°F-3.8°C 69% Calm Calm 3.0 mph4.8 kmh 30.33 in1027.1 mb 0.00 in0.0 mm 0.00 in0.0 mm 0.00 in0.0 mm
01:54 PM 34.2°F1.2°C 25.1°F-3.8°C 69% Calm Calm 3.0 mph4.8 kmh 30.33 in1027.1 mb 0.00 in0.0 mm 0.00 in0.0 mm 0.00 in0.0 mm
01:56 PM 34.3°F1.3°C 25.6°F-3.6°C 70% Calm Calm 3.0 mph4.8 kmh 30.33 in1027.1 mb 0.00 in0.0 mm 0.00 in0.0 mm 0.00 in0.0 mm
01:58 PM 34.3°F1.3°C 25.6°F-3.6°C 70% Calm Calm 3.0 mph4.8 kmh 30.32 in1026.8 mb 0.00 in0.0 mm 0.00 in0.0 mm 0.00 in0.0 mm
02:00 PM 34.4°F1.3°C 25.6°F-3.6°C 70% Calm Calm 3.0 mph4.8 kmh 30.32 in1026.8 mb 0.00 in0.0 mm 0.00 in0.0 mm 0.00 in0.0 mm
02:02 PM 34.5°F1.4°C 25.4°F-3.7°C 69% Calm Calm -- 30.32 in1026.8 mb 0.00 in0.0 mm 0.00 in0.0 mm 0.00 in0.0 mm
02:04 PM 34.5°F1.4°C 25.7°F-3.5°C 70% Calm Calm -- 30.32 in1026.8 mb 0.00 in0.0 mm 0.00 in0.0 mm 0.00 in0.0 mm
02:06 PM 34.6°F1.4°C 25.8°F-3.4°C 70% Calm Calm -- 30.32 in1026.8 mb 0.00 in0.0 mm 0.00 in0.0 mm 0.00 in0.0 mm
02:08 PM 34.8°F1.6°C 25.7°F-3.5°C 69% Calm Calm -- 30.32 in1026.8 mb 0.00 in0.0 mm 0.00 in0.0 mm 0.00 in0.0 mm
02:10 PM 34.9°F1.6°C 25.8°F-3.4°C 69% Calm Calm 4.0 mph6.4 kmh 30.32 in1026.8 mb 0.00 in0.0 mm 0.00 in0.0 mm 0.00 in0.0 mm
02:12 PM 35.1°F1.7°C 26.0°F-3.3°C 69% Calm Calm 4.0 mph6.4 kmh 30.31 in1026.4 mb 0.00 in0.0 mm 0.00 in0.0 mm 0.00 in0.0 mm
02:14 PM 35.2°F1.8°C 26.1°F-3.3°C 69% Calm Calm 4.0 mph6.4 kmh 30.31 in1026.4 mb 0.00 in0.0 mm 0.00 in0.0 mm 0.00 in0.0 mm
02:16 PM 35.3°F1.8°C 25.8°F-3.4°C 68% Calm Calm 4.0 mph6.4 kmh 30.31 in1026.4 mb 0.00 in0.0 mm 0.00 in0.0 mm 0.00 in0.0 mm
02:18 PM 35.4°F1.9°C 25.9°F-3.4°C 68% Calm Calm 4.0 mph6.4 kmh 30.31 in1026.4 mb 0.00 in0.0 mm 0.00 in0.0 mm 0.00 in0.0 mm
02:20 PM 35.4°F1.9°C 25.9°F-3.4°C 68% Calm Calm 4.0 mph6.4 kmh 30.31 in1026.4 mb 0.00 in0.0 mm 0.00 in0.0 mm 0.00 in0.0 mm
02:22 PM 35.5°F1.9°C 25.6°F-3.6°C 67% 2.0 mph S3.2 kmh S 4.0 mph6.4 kmh 30.31 in1026.4 mb 0.00 in0.0 mm 0.00 in0.0 mm 0.00 in0.0 mm
02:24 PM 35.5°F1.9°C 26.0°F-3.3°C 68% 2.0 mph S3.2 kmh S 4.0 mph6.4 kmh 30.31 in1026.4 mb 0.00 in0.0 mm 0.00 in0.0 mm 0.00 in0.0 mm
02:26 PM 35.5°F1.9°C 26.0°F-3.3°C 68% Calm Calm 4.0 mph6.4 kmh 30.31 in1026.4 mb 0.00 in0.0 mm 0.00 in0.0 mm 0.00 in0.0 mm
02:28 PM 35.6°F2.0°C 25.7°F-3.5°C 67% Calm Calm 4.0 mph6.4 kmh 30.31 in1026.4 mb 0.00 in0.0 mm 0.00 in0.0 mm 0.00 in0.0 mm
02:30 PM 35.6°F2.0°C 25.7°F-3.5°C 67% Calm Calm 4.0 mph6.4 kmh 30.31 in1026.4 mb 0.00 in0.0 mm 0.00 in0.0 mm 0.00 in0.0 mm
02:34 PM 35.7°F2.1°C 25.8°F-3.4°C 67% Calm Calm 3.0 mph4.8 kmh 30.31 in1026.4 mb 0.00 in0.0 mm 0.00 in0.0 mm 0.00 in0.0 mm
02:36 PM 35.9°F2.2°C 26.4°F-3.1°C 68% 3.0 mph W4.8 kmh W 5.0 mph8.0 kmh 30.31 in1026.4 mb 0.00 in0.0 mm 0.00 in0.0 mm 0.00 in0.0 mm
02:38 PM 36.0°F2.2°C 26.5°F-3.1°C 68% 4.0 mph SW6.4 kmh SW 6.0 mph9.7 kmh 30.31 in1026.4 mb 0.00 in0.0 mm 0.00 in0.0 mm 0.00 in0.0 mm
02:40 PM 36.1°F2.3°C 25.9°F-3.4°C 66% Calm Calm 6.0 mph9.7 kmh 30.31 in1026.4 mb 0.00 in0.0 mm 0.00 in0.0 mm 0.00 in0.0 mm
02:42 PM 36.2°F2.3°C 26.3°F-3.2°C 67% Calm Calm 6.0 mph9.7 kmh 30.31 in1026.4 mb 0.00 in0.0 mm 0.00 in0.0 mm 0.00 in0.0 mm
02:44 PM 36.3°F2.4°C 26.1°F-3.3°C 66% Calm Calm 6.0 mph9.7 kmh 30.31 in1026.4 mb 0.00 in0.0 mm 0.00 in0.0 mm 0.00 in0.0 mm
02:46 PM 36.4°F2.4°C 26.5°F-3.1°C 67% Calm Calm 6.0 mph9.7 kmh 30.31 in1026.4 mb 0.00 in0.0 mm 0.00 in0.0 mm 0.00 in0.0 mm
02:48 PM 36.5°F2.5°C 26.2°F-3.2°C 66% 3.0 mph SW4.8 kmh SW 6.0 mph9.7 kmh 30.31 in1026.4 mb 0.00 in0.0 mm 0.00 in0.0 mm 0.00 in0.0 mm
02:50 PM 36.6°F2.6°C 26.0°F-3.3°C 65% Calm Calm 6.0 mph9.7 kmh 30.31 in1026.4 mb 0.00 in0.0 mm 0.00 in0.0 mm 0.00 in0.0 mm
02:52 PM 36.7°F2.6°C 26.4°F-3.1°C 66% 2.0 mph SW3.2 kmh SW 6.0 mph9.7 kmh 30.31 in1026.4 mb 0.00 in0.0 mm 0.00 in0.0 mm 0.00 in0.0 mm
02:54 PM 36.8°F2.7°C 26.2°F-3.2°C 65% Calm Calm 6.0 mph9.7 kmh 30.31 in1026.4 mb 0.00 in0.0 mm 0.00 in0.0 mm 0.00 in0.0 mm
02:56 PM 36.9°F2.7°C 26.3°F-3.2°C 65% Calm Calm 6.0 mph9.7 kmh 30.31 in1026.4 mb 0.00 in0.0 mm 0.00 in0.0 mm 0.00 in0.0 mm
02:58 PM 36.9°F2.7°C 26.3°F-3.2°C 65% Calm Calm 6.0 mph9.7 kmh 30.31 in1026.4 mb 0.00 in0.0 mm 0.00 in0.0 mm 0.00 in0.0 mm
03:00 PM 37.0°F2.8°C 26.0°F-3.3°C 64% Calm Calm 6.0 mph9.7 kmh 30.31 in1026.4 mb 0.00 in0.0 mm 0.00 in0.0 mm 0.00 in0.0 mm
03:02 PM 37.0°F2.8°C 26.0°F-3.3°C 64% Calm Calm 3.0 mph4.8 kmh 30.31 in1026.4 mb 0.00 in0.0 mm 0.00 in0.0 mm 0.00 in0.0 mm
03:04 PM 37.1°F2.8°C 26.1°F-3.3°C 64% Calm Calm 3.0 mph4.8 kmh 30.31 in1026.4 mb 0.00 in0.0 mm 0.00 in0.0 mm 0.00 in0.0 mm
03:06 PM 37.1°F2.8°C 26.4°F-3.1°C 65% Calm Calm 3.0 mph4.8 kmh 30.31 in1026.4 mb 0.00 in0.0 mm 0.00 in0.0 mm 0.00 in0.0 mm
03:08 PM 37.1°F2.8°C 26.1°F-3.3°C 64% Calm Calm 3.0 mph4.8 kmh 30.31 in1026.4 mb 0.00 in0.0 mm 0.00 in0.0 mm 0.00 in0.0 mm
03:10 PM 37.1°F2.8°C 26.4°F-3.1°C 65% Calm Calm 3.0 mph4.8 kmh 30.30 in1026.1 mb 0.00 in0.0 mm 0.00 in0.0 mm 0.00 in0.0 mm
03:12 PM 37.1°F2.8°C 26.8°F-2.9°C 66% Calm Calm 3.0 mph4.8 kmh 30.30 in1026.1 mb 0.00 in0.0 mm 0.00 in0.0 mm 0.00 in0.0 mm
03:14 PM 37.3°F2.9°C 27.0°F-2.8°C 66% 6.0 mph WNW9.7 kmh WNW 6.0 mph9.7 kmh 30.30 in1026.1 mb 0.00 in0.0 mm 0.00 in0.0 mm 0.00 in0.0 mm
03:16 PM 37.3°F2.9°C 26.6°F-3.0°C 65% 5.0 mph SW8.0 kmh SW 6.0 mph9.7 kmh 30.30 in1026.1 mb 0.00 in0.0 mm 0.00 in0.0 mm 0.00 in0.0 mm
03:18 PM 37.3°F2.9°C 26.3°F-3.2°C 64% Calm Calm 6.0 mph9.7 kmh 30.30 in1026.1 mb 0.00 in0.0 mm 0.00 in0.0 mm 0.00 in0.0 mm
03:20 PM 37.3°F2.9°C 26.3°F-3.2°C 64% Calm Calm 6.0 mph9.7 kmh 30.30 in1026.1 mb 0.00 in0.0 mm 0.00 in0.0 mm 0.00 in0.0 mm
03:22 PM 37.3°F2.9°C 26.3°F-3.2°C 64% Calm Calm 6.0 mph9.7 kmh 30.30 in1026.1 mb 0.00 in0.0 mm 0.00 in0.0 mm 0.00 in0.0 mm
03:24 PM 37.4°F3.0°C 26.7°F-2.9°C 65% Calm Calm 6.0 mph9.7 kmh 30.30 in1026.1 mb 0.01 in0.3 mm 0.30 in7.6 mm 0.01 in0.3 mm
03:26 PM 37.4°F3.0°C 27.1°F-2.7°C 66% Calm Calm 6.0 mph9.7 kmh 30.29 in1025.7 mb 0.01 in0.3 mm 0.00 in0.0 mm 0.01 in0.3 mm
03:28 PM 37.5°F3.1°C 26.8°F-2.9°C 65% Calm Calm 6.0 mph9.7 kmh 30.29 in1025.7 mb 0.01 in0.3 mm 0.00 in0.0 mm 0.01 in0.3 mm
03:30 PM 37.5°F3.1°C 26.8°F-2.9°C 65% Calm Calm 6.0 mph9.7 kmh 30.29 in1025.7 mb 0.01 in0.3 mm 0.00 in0.0 mm 0.01 in0.3 mm
03:34 PM 37.8°F3.2°C 26.7°F-2.9°C 64% 4.0 mph WSW6.4 kmh WSW 5.0 mph8.0 kmh 30.29 in1025.7 mb 0.01 in0.3 mm 0.00 in0.0 mm 0.01 in0.3 mm
03:36 PM 38.0°F3.3°C 26.9°F-2.8°C 64% 2.0 mph SW3.2 kmh SW 6.0 mph9.7 kmh 30.29 in1025.7 mb 0.01 in0.3 mm 0.00 in0.0 mm 0.01 in0.3 mm
03:38 PM 38.2°F3.4°C 26.7°F-2.9°C 63% Calm Calm 6.0 mph9.7 kmh 30.29 in1025.7 mb 0.01 in0.3 mm 0.00 in0.0 mm 0.01 in0.3 mm
03:40 PM 38.4°F3.6°C 26.9°F-2.8°C 63% Calm Calm 6.0 mph9.7 kmh 30.29 in1025.7 mb 0.01 in0.3 mm 0.00 in0.0 mm 0.01 in0.3 mm
03:42 PM 38.6°F3.7°C 27.1°F-2.7°C 63% Calm Calm 6.0 mph9.7 kmh 30.29 in1025.7 mb 0.01 in0.3 mm 0.00 in0.0 mm 0.01 in0.3 mm
03:44 PM 38.6°F3.7°C 27.1°F-2.7°C 63% Calm Calm 6.0 mph9.7 kmh 30.29 in1025.7 mb 0.01 in0.3 mm 0.00 in0.0 mm 0.01 in0.3 mm
03:46 PM 38.7°F3.7°C 27.2°F-2.7°C 63% Calm Calm 6.0 mph9.7 kmh 30.29 in1025.7 mb 0.01 in0.3 mm 0.00 in0.0 mm 0.01 in0.3 mm
03:48 PM 38.7°F3.7°C 26.8°F-2.9°C 62% Calm Calm 6.0 mph9.7 kmh 30.29 in1025.7 mb 0.01 in0.3 mm 0.00 in0.0 mm 0.01 in0.3 mm
03:50 PM 38.7°F3.7°C 27.2°F-2.7°C 63% Calm Calm 6.0 mph9.7 kmh 30.28 in1025.4 mb 0.01 in0.3 mm 0.00 in0.0 mm 0.01 in0.3 mm
03:52 PM 38.7°F3.7°C 27.2°F-2.7°C 63% Calm Calm 6.0 mph9.7 kmh 30.29 in1025.7 mb 0.01 in0.3 mm 0.00 in0.0 mm 0.01 in0.3 mm
03:54 PM 38.7°F3.7°C 26.4°F-3.1°C 61% Calm Calm 6.0 mph9.7 kmh 30.28 in1025.4 mb 0.01 in0.3 mm 0.00 in0.0 mm 0.01 in0.3 mm
03:56 PM 38.6°F3.7°C 26.7°F-2.9°C 62% 4.0 mph WSW6.4 kmh WSW 6.0 mph9.7 kmh 30.28 in1025.4 mb 0.01 in0.3 mm 0.00 in0.0 mm 0.01 in0.3 mm
03:58 PM 38.6°F3.7°C 26.7°F-2.9°C 62% Calm Calm 6.0 mph9.7 kmh 30.28 in1025.4 mb 0.01 in0.3 mm 0.00 in0.0 mm 0.01 in0.3 mm
04:00 PM 38.5°F3.6°C 26.2°F-3.2°C 61% 2.0 mph SW3.2 kmh SW 6.0 mph9.7 kmh 30.29 in1025.7 mb 0.01 in0.3 mm 0.00 in0.0 mm 0.01 in0.3 mm
04:02 PM 38.3°F3.5°C 26.1°F-3.3°C 61% 1.0 mph SSW1.6 kmh SSW 3.0 mph4.8 kmh 30.28 in1025.4 mb 0.01 in0.3 mm 0.00 in0.0 mm 0.01 in0.3 mm
04:04 PM 38.1°F3.4°C 25.9°F-3.4°C 61% 1.0 mph SSW1.6 kmh SSW 3.0 mph4.8 kmh 30.28 in1025.4 mb 0.01 in0.3 mm 0.00 in0.0 mm 0.01 in0.3 mm
04:06 PM 37.8°F3.2°C 25.6°F-3.6°C 61% Calm Calm 3.0 mph4.8 kmh 30.29 in1025.7 mb 0.02 in0.5 mm 0.30 in7.6 mm 0.02 in0.5 mm
04:08 PM 37.6°F3.1°C 25.8°F-3.4°C 62% Calm Calm 3.0 mph4.8 kmh 30.29 in1025.7 mb 0.02 in0.5 mm 0.00 in0.0 mm 0.02 in0.5 mm
04:10 PM 37.5°F3.1°C 25.7°F-3.5°C 62% 1.0 mph SSW1.6 kmh SSW 3.0 mph4.8 kmh 30.28 in1025.4 mb 0.02 in0.5 mm 0.00 in0.0 mm 0.02 in0.5 mm
04:12 PM 37.4°F3.0°C 26.0°F-3.3°C 63% Calm Calm 3.0 mph4.8 kmh 30.29 in1025.7 mb 0.02 in0.5 mm 0.00 in0.0 mm 0.02 in0.5 mm
04:14 PM 37.3°F2.9°C 25.9°F-3.4°C 63% Calm Calm 3.0 mph4.8 kmh 30.29 in1025.7 mb 0.02 in0.5 mm 0.00 in0.0 mm 0.02 in0.5 mm
04:16 PM 37.3°F2.9°C 26.3°F-3.2°C 64% Calm Calm 3.0 mph4.8 kmh 30.28 in1025.4 mb 0.02 in0.5 mm 0.00 in0.0 mm 0.02 in0.5 mm
04:18 PM 37.3°F2.9°C 26.3°F-3.2°C 64% Calm Calm 3.0 mph4.8 kmh 30.28 in1025.4 mb 0.02 in0.5 mm 0.00 in0.0 mm 0.02 in0.5 mm
04:20 PM 37.3°F2.9°C 26.3°F-3.2°C 64% Calm Calm 3.0 mph4.8 kmh 30.28 in1025.4 mb 0.02 in0.5 mm 0.00 in0.0 mm 0.02 in0.5 mm
04:22 PM 37.2°F2.9°C 26.2°F-3.2°C 64% Calm Calm 3.0 mph4.8 kmh 30.28 in1025.4 mb 0.02 in0.5 mm 0.00 in0.0 mm 0.02 in0.5 mm
04:24 PM 37.2°F2.9°C 26.2°F-3.2°C 64% Calm Calm 3.0 mph4.8 kmh 30.28 in1025.4 mb 0.02 in0.5 mm 0.00 in0.0 mm 0.02 in0.5 mm
04:26 PM 37.2°F2.9°C 26.2°F-3.2°C 64% Calm Calm 3.0 mph4.8 kmh 30.28 in1025.4 mb 0.02 in0.5 mm 0.00 in0.0 mm 0.02 in0.5 mm
04:28 PM 37.1°F2.8°C 26.1°F-3.3°C 64% Calm Calm 3.0 mph4.8 kmh 30.28 in1025.4 mb 0.02 in0.5 mm 0.00 in0.0 mm 0.02 in0.5 mm
04:30 PM 37.0°F2.8°C 26.0°F-3.3°C 64% Calm Calm 3.0 mph4.8 kmh 30.28 in1025.4 mb 0.02 in0.5 mm 0.00 in0.0 mm 0.02 in0.5 mm
04:34 PM 36.9°F2.7°C 25.9°F-3.4°C 64% Calm Calm -- 30.28 in1025.4 mb 0.01 in0.3 mm 0.00 in0.0 mm 0.02 in0.5 mm
04:36 PM 36.8°F2.7°C 25.8°F-3.4°C 64% Calm Calm -- 30.28 in1025.4 mb 0.01 in0.3 mm 0.00 in0.0 mm 0.02 in0.5 mm
04:38 PM 36.8°F2.7°C 25.8°F-3.4°C 64% Calm Calm -- 30.27 in1025.1 mb 0.01 in0.3 mm 0.00 in0.0 mm 0.02 in0.5 mm
04:40 PM 36.8°F2.7°C 25.8°F-3.4°C 64% Calm Calm -- 30.28 in1025.4 mb 0.01 in0.3 mm 0.00 in0.0 mm 0.02 in0.5 mm
04:42 PM 36.7°F2.6°C 26.1°F-3.3°C 65% Calm Calm -- 30.28 in1025.4 mb 0.01 in0.3 mm 0.00 in0.0 mm 0.02 in0.5 mm
04:44 PM 36.7°F2.6°C 25.7°F-3.5°C 64% Calm Calm -- 30.28 in1025.4 mb 0.01 in0.3 mm 0.00 in0.0 mm 0.02 in0.5 mm
04:46 PM 36.6°F2.6°C 26.0°F-3.3°C 65% Calm Calm -- 30.28 in1025.4 mb 0.01 in0.3 mm 0.00 in0.0 mm 0.02 in0.5 mm
04:48 PM 36.6°F2.6°C 25.6°F-3.6°C 64% Calm Calm -- 30.28 in1025.4 mb 0.01 in0.3 mm 0.00 in0.0 mm 0.02 in0.5 mm
04:50 PM 36.6°F2.6°C 25.6°F-3.6°C 64% Calm Calm -- 30.28 in1025.4 mb 0.01 in0.3 mm 0.00 in0.0 mm 0.02 in0.5 mm
04:52 PM 36.6°F2.6°C 26.0°F-3.3°C 65% Calm Calm -- 30.28 in1025.4 mb 0.01 in0.3 mm 0.00 in0.0 mm 0.02 in0.5 mm
04:54 PM 36.6°F2.6°C 26.0°F-3.3°C 65% Calm Calm -- 30.28 in1025.4 mb 0.01 in0.3 mm 0.00 in0.0 mm 0.02 in0.5 mm
04:56 PM 36.6°F2.6°C 26.0°F-3.3°C 65% Calm Calm -- 30.27 in1025.1 mb 0.01 in0.3 mm 0.00 in0.0 mm 0.02 in0.5 mm
04:58 PM 36.6°F2.6°C 26.0°F-3.3°C 65% 1.0 mph SSW1.6 kmh SSW 2.0 mph3.2 kmh 30.27 in1025.1 mb 0.01 in0.3 mm 0.00 in0.0 mm 0.02 in0.5 mm
05:00 PM 36.6°F2.6°C 26.0°F-3.3°C 65% Calm Calm 2.0 mph3.2 kmh 30.27 in1025.1 mb 0.01 in0.3 mm 0.00 in0.0 mm 0.02 in0.5 mm
05:02 PM 36.7°F2.6°C 26.1°F-3.3°C 65% Calm Calm -- 30.27 in1025.1 mb 0.01 in0.3 mm 0.00 in0.0 mm 0.02 in0.5 mm
05:04 PM 36.6°F2.6°C 26.0°F-3.3°C 65% Calm Calm -- 30.27 in1025.1 mb 0.01 in0.3 mm 0.00 in0.0 mm 0.02 in0.5 mm
05:06 PM 36.7°F2.6°C 26.1°F-3.3°C 65% Calm Calm -- 30.27 in1025.1 mb 0.01 in0.3 mm 0.00 in0.0 mm 0.02 in0.5 mm
05:08 PM 36.7°F2.6°C 26.1°F-3.3°C 65% Calm Calm -- 30.27 in1025.1 mb 0.01 in0.3 mm 0.00 in0.0 mm 0.02 in0.5 mm
05:10 PM 36.6°F2.6°C 26.0°F-3.3°C 65% Calm Calm -- 30.27 in1025.1 mb 0.01 in0.3 mm 0.00 in0.0 mm 0.02 in0.5 mm
05:12 PM 36.6°F2.6°C 26.0°F-3.3°C 65% Calm Calm -- 30.27 in1025.1 mb 0.01 in0.3 mm 0.00 in0.0 mm 0.02 in0.5 mm
05:14 PM 36.6°F2.6°C 26.0°F-3.3°C 65% Calm Calm -- 30.27 in1025.1 mb 0.01 in0.3 mm 0.00 in0.0 mm 0.02 in0.5 mm
05:16 PM 36.6°F2.6°C 26.0°F-3.3°C 65% Calm Calm -- 30.27 in1025.1 mb 0.01 in0.3 mm 0.00 in0.0 mm 0.02 in0.5 mm
05:18 PM 36.6°F2.6°C 26.0°F-3.3°C 65% Calm Calm -- 30.27 in1025.1 mb 0.01 in0.3 mm 0.00 in0.0 mm 0.02 in0.5 mm
05:20 PM 36.6°F2.6°C 26.3°F-3.2°C 66% Calm Calm -- 30.27 in1025.1 mb 0.01 in0.3 mm 0.00 in0.0 mm 0.02 in0.5 mm
05:22 PM 36.6°F2.6°C 26.3°F-3.2°C 66% Calm Calm -- 30.27 in1025.1 mb 0.01 in0.3 mm 0.00 in0.0 mm 0.02 in0.5 mm
05:24 PM 36.6°F2.6°C 26.3°F-3.2°C 66% Calm Calm -- 30.27 in1025.1 mb 0.01 in0.3 mm 0.00 in0.0 mm 0.02 in0.5 mm
05:26 PM 36.6°F2.6°C 26.3°F-3.2°C 66% Calm Calm -- 30.27 in1025.1 mb 0.01 in0.3 mm 0.00 in0.0 mm 0.02 in0.5 mm
05:28 PM 36.6°F2.6°C 26.3°F-3.2°C 66% Calm Calm -- 30.27 in1025.1 mb 0.02 in0.5 mm 0.30 in7.6 mm 0.03 in0.8 mm
05:30 PM 36.6°F2.6°C 26.3°F-3.2°C 66% Calm Calm -- 30.27 in1025.1 mb 0.02 in0.5 mm 0.00 in0.0 mm 0.03 in0.8 mm
05:34 PM 36.6°F2.6°C 26.3°F-3.2°C 66% Calm Calm -- 30.27 in1025.1 mb 0.01 in0.3 mm 0.00 in0.0 mm 0.03 in0.8 mm
05:36 PM 36.6°F2.6°C 26.0°F-3.3°C 65% Calm Calm -- 30.27 in1025.1 mb 0.01 in0.3 mm 0.00 in0.0 mm 0.03 in0.8 mm
05:38 PM 36.6°F2.6°C 26.0°F-3.3°C 65% Calm Calm -- 30.27 in1025.1 mb 0.01 in0.3 mm 0.00 in0.0 mm 0.03 in0.8 mm
05:40 PM 36.5°F2.5°C 26.2°F-3.2°C 66% Calm Calm -- 30.27 in1025.1 mb 0.01 in0.3 mm 0.00 in0.0 mm 0.03 in0.8 mm
05:42 PM 36.6°F2.6°C 26.3°F-3.2°C 66% Calm Calm -- 30.27 in1025.1 mb 0.01 in0.3 mm 0.00 in0.0 mm 0.03 in0.8 mm
05:44 PM 36.5°F2.5°C 26.2°F-3.2°C 66% Calm Calm -- 30.27 in1025.1 mb 0.01 in0.3 mm 0.00 in0.0 mm 0.03 in0.8 mm
05:46 PM 36.6°F2.6°C 26.3°F-3.2°C 66% Calm Calm -- 30.27 in1025.1 mb 0.01 in0.3 mm 0.00 in0.0 mm 0.03 in0.8 mm
05:48 PM 36.6°F2.6°C 26.3°F-3.2°C 66% Calm Calm -- 30.27 in1025.1 mb 0.01 in0.3 mm 0.00 in0.0 mm 0.03 in0.8 mm
05:50 PM 36.6°F2.6°C 26.3°F-3.2°C 66% 1.0 mph SSW1.6 kmh SSW 1.0 mph1.6 kmh 30.27 in1025.1 mb 0.01 in0.3 mm 0.00 in0.0 mm 0.03 in0.8 mm
05:52 PM 36.6°F2.6°C 26.3°F-3.2°C 66% Calm Calm 2.0 mph3.2 kmh 30.27 in1025.1 mb 0.01 in0.3 mm 0.00 in0.0 mm 0.03 in0.8 mm
05:54 PM 36.6°F2.6°C 26.3°F-3.2°C 66% Calm Calm 2.0 mph3.2 kmh 30.27 in1025.1 mb 0.01 in0.3 mm 0.00 in0.0 mm 0.03 in0.8 mm
05:56 PM 36.6°F2.6°C 26.3°F-3.2°C 66% Calm Calm 2.0 mph3.2 kmh 30.27 in1025.1 mb 0.01 in0.3 mm 0.00 in0.0 mm 0.03 in0.8 mm
05:58 PM 36.6°F2.6°C 26.3°F-3.2°C 66% Calm Calm 2.0 mph3.2 kmh 30.26 in1024.7 mb 0.01 in0.3 mm 0.00 in0.0 mm 0.03 in0.8 mm
06:00 PM 36.5°F2.5°C 26.2°F-3.2°C 66% Calm Calm 2.0 mph3.2 kmh 30.26 in1024.7 mb 0.01 in0.3 mm 0.00 in0.0 mm 0.03 in0.8 mm
06:02 PM 36.5°F2.5°C 26.2°F-3.2°C 66% Calm Calm -- 30.26 in1024.7 mb 0.01 in0.3 mm 0.00 in0.0 mm 0.03 in0.8 mm
06:04 PM 36.5°F2.5°C 26.2°F-3.2°C 66% Calm Calm -- 30.26 in1024.7 mb 0.01 in0.3 mm 0.00 in0.0 mm 0.03 in0.8 mm
06:06 PM 36.5°F2.5°C 26.2°F-3.2°C 66% Calm Calm -- 30.26 in1024.7 mb 0.01 in0.3 mm 0.00 in0.0 mm 0.03 in0.8 mm
06:08 PM 36.5°F2.5°C 26.2°F-3.2°C 66% Calm Calm -- 30.26 in1024.7 mb 0.01 in0.3 mm 0.00 in0.0 mm 0.03 in0.8 mm
06:10 PM 36.5°F2.5°C 26.2°F-3.2°C 66% Calm Calm -- 30.27 in1025.1 mb 0.01 in0.3 mm 0.00 in0.0 mm 0.03 in0.8 mm
06:12 PM 36.5°F2.5°C 26.6°F-3.0°C 67% Calm Calm -- 30.27 in1025.1 mb 0.01 in0.3 mm 0.00 in0.0 mm 0.03 in0.8 mm
06:14 PM 36.5°F2.5°C 26.6°F-3.0°C 67% Calm Calm -- 30.27 in1025.1 mb 0.01 in0.3 mm 0.00 in0.0 mm 0.03 in0.8 mm
06:16 PM 36.5°F2.5°C 26.6°F-3.0°C 67% Calm Calm -- 30.27 in1025.1 mb 0.01 in0.3 mm 0.00 in0.0 mm 0.03 in0.8 mm
06:18 PM 36.5°F2.5°C 26.6°F-3.0°C 67% Calm Calm -- 30.27 in1025.1 mb 0.01 in0.3 mm 0.00 in0.0 mm 0.03 in0.8 mm
06:20 PM 36.5°F2.5°C 26.2°F-3.2°C 66% 1.0 mph SSW1.6 kmh SSW 1.0 mph1.6 kmh 30.27 in1025.1 mb 0.01 in0.3 mm 0.00 in0.0 mm 0.03 in0.8 mm
06:22 PM 36.5°F2.5°C 26.6°F-3.0°C 67% Calm Calm 1.0 mph1.6 kmh 30.27 in1025.1 mb 0.01 in0.3 mm 0.00 in0.0 mm 0.03 in0.8 mm
06:24 PM 36.5°F2.5°C 26.6°F-3.0°C 67% Calm Calm 1.0 mph1.6 kmh 30.27 in1025.1 mb 0.01 in0.3 mm 0.00 in0.0 mm 0.03 in0.8 mm
06:26 PM 36.5°F2.5°C 26.6°F-3.0°C 67% Calm Calm 1.0 mph1.6 kmh 30.27 in1025.1 mb 0.01 in0.3 mm 0.00 in0.0 mm 0.03 in0.8 mm
06:28 PM 36.4°F2.4°C 26.5°F-3.1°C 67% Calm Calm 1.0 mph1.6 kmh 30.27 in1025.1 mb 0.01 in0.3 mm 0.00 in0.0 mm 0.03 in0.8 mm
06:30 PM 36.4°F2.4°C 26.5°F-3.1°C 67% Calm Calm 1.0 mph1.6 kmh 30.27 in1025.1 mb 0.01 in0.3 mm 0.00 in0.0 mm 0.03 in0.8 mm
06:34 PM 36.4°F2.4°C 26.5°F-3.1°C 67% Calm Calm -- 30.27 in1025.1 mb 0.00 in0.0 mm 0.00 in0.0 mm 0.03 in0.8 mm
06:36 PM 36.3°F2.4°C 26.4°F-3.1°C 67% Calm Calm -- 30.27 in1025.1 mb 0.00 in0.0 mm 0.00 in0.0 mm 0.03 in0.8 mm
06:38 PM 36.3°F2.4°C 26.8°F-2.9°C 68% Calm Calm -- 30.27 in1025.1 mb 0.00 in0.0 mm 0.00 in0.0 mm 0.03 in0.8 mm
06:40 PM 36.3°F2.4°C 26.8°F-2.9°C 68% Calm Calm -- 30.27 in1025.1 mb 0.00 in0.0 mm 0.00 in0.0 mm 0.03 in0.8 mm
06:42 PM 36.3°F2.4°C 26.8°F-2.9°C 68% Calm Calm 2.0 mph3.2 kmh 30.27 in1025.1 mb 0.00 in0.0 mm 0.00 in0.0 mm 0.03 in0.8 mm
06:44 PM 36.2°F2.3°C 26.7°F-2.9°C 68% 1.0 mph SSW1.6 kmh SSW 2.0 mph3.2 kmh 30.26 in1024.7 mb 0.00 in0.0 mm 0.00 in0.0 mm 0.03 in0.8 mm
06:46 PM 36.2°F2.3°C 26.7°F-2.9°C 68% Calm Calm 2.0 mph3.2 kmh 30.26 in1024.7 mb 0.00 in0.0 mm 0.00 in0.0 mm 0.03 in0.8 mm
06:48 PM 36.2°F2.3°C 26.7°F-2.9°C 68% Calm Calm 2.0 mph3.2 kmh 30.27 in1025.1 mb 0.00 in0.0 mm 0.00 in0.0 mm 0.03 in0.8 mm
06:50 PM 36.2°F2.3°C 27.0°F-2.8°C 69% Calm Calm 2.0 mph3.2 kmh 30.27 in1025.1 mb 0.00 in0.0 mm 0.00 in0.0 mm 0.03 in0.8 mm
06:52 PM 36.1°F2.3°C 26.9°F-2.8°C 69% Calm Calm 2.0 mph3.2 kmh 30.27 in1025.1 mb 0.00 in0.0 mm 0.00 in0.0 mm 0.03 in0.8 mm
06:54 PM 36.1°F2.3°C 26.9°F-2.8°C 69% Calm Calm 2.0 mph3.2 kmh 30.27 in1025.1 mb 0.00 in0.0 mm 0.00 in0.0 mm 0.03 in0.8 mm
06:56 PM 36.1°F2.3°C 26.9°F-2.8°C 69% Calm Calm 2.0 mph3.2 kmh 30.27 in1025.1 mb 0.00 in0.0 mm 0.00 in0.0 mm 0.03 in0.8 mm
06:58 PM 36.0°F2.2°C 26.8°F-2.9°C 69% Calm Calm 2.0 mph3.2 kmh 30.27 in1025.1 mb 0.00 in0.0 mm 0.00 in0.0 mm 0.03 in0.8 mm
07:04 PM 35.9°F2.2°C 27.1°F-2.7°C 70% Calm Calm 1.0 mph1.6 kmh 30.27 in1025.1 mb 0.00 in0.0 mm 0.00 in0.0 mm 0.03 in0.8 mm
07:06 PM 35.9°F2.2°C 27.1°F-2.7°C 70% Calm Calm 1.0 mph1.6 kmh 30.27 in1025.1 mb 0.00 in0.0 mm 0.00 in0.0 mm 0.03 in0.8 mm
07:08 PM 35.8°F2.1°C 27.0°F-2.8°C 70% Calm Calm 2.0 mph3.2 kmh 30.27 in1025.1 mb 0.00 in0.0 mm 0.00 in0.0 mm 0.03 in0.8 mm
07:10 PM 35.7°F2.1°C 26.9°F-2.8°C 70% Calm Calm 3.0 mph4.8 kmh 30.27 in1025.1 mb 0.00 in0.0 mm 0.00 in0.0 mm 0.03 in0.8 mm
07:12 PM 35.7°F2.1°C 27.2°F-2.7°C 71% Calm Calm 3.0 mph4.8 kmh 30.27 in1025.1 mb 0.00 in0.0 mm 0.00 in0.0 mm 0.03 in0.8 mm
07:14 PM 35.7°F2.1°C 27.2°F-2.7°C 71% Calm Calm 3.0 mph4.8 kmh 30.27 in1025.1 mb 0.00 in0.0 mm 0.00 in0.0 mm 0.03 in0.8 mm
07:16 PM 35.6°F2.0°C 27.1°F-2.7°C 71% Calm Calm 3.0 mph4.8 kmh 30.28 in1025.4 mb 0.00 in0.0 mm 0.00 in0.0 mm 0.03 in0.8 mm
07:18 PM 35.6°F2.0°C 27.1°F-2.7°C 71% Calm Calm 3.0 mph4.8 kmh 30.28 in1025.4 mb 0.00 in0.0 mm 0.00 in0.0 mm 0.03 in0.8 mm
07:20 PM 35.5°F1.9°C 27.4°F-2.6°C 72% Calm Calm 3.0 mph4.8 kmh 30.28 in1025.4 mb 0.00 in0.0 mm 0.00 in0.0 mm 0.03 in0.8 mm
07:22 PM 35.5°F1.9°C 27.4°F-2.6°C 72% Calm Calm 3.0 mph4.8 kmh 30.28 in1025.4 mb 0.00 in0.0 mm 0.00 in0.0 mm 0.03 in0.8 mm
07:24 PM 35.5°F1.9°C 27.4°F-2.6°C 72% Calm Calm 3.0 mph4.8 kmh 30.28 in1025.4 mb 0.00 in0.0 mm 0.00 in0.0 mm 0.03 in0.8 mm
07:26 PM 35.4°F1.9°C 27.3°F-2.6°C 72% Calm Calm 3.0 mph4.8 kmh 30.28 in1025.4 mb 0.00 in0.0 mm 0.00 in0.0 mm 0.03 in0.8 mm
07:28 PM 35.4°F1.9°C 27.3°F-2.6°C 72% Calm Calm 3.0 mph4.8 kmh 30.28 in1025.4 mb 0.00 in0.0 mm 0.00 in0.0 mm 0.03 in0.8 mm
07:30 PM 35.4°F1.9°C 27.3°F-2.6°C 72% Calm Calm 3.0 mph4.8 kmh 30.28 in1025.4 mb 0.00 in0.0 mm 0.00 in0.0 mm 0.03 in0.8 mm
07:34 PM 35.3°F1.8°C 27.2°F-2.7°C 72% Calm Calm 1.0 mph1.6 kmh 30.28 in1025.4 mb 0.00 in0.0 mm 0.00 in0.0 mm 0.03 in0.8 mm
07:36 PM 35.3°F1.8°C 27.2°F-2.7°C 72% Calm Calm 1.0 mph1.6 kmh 30.27 in1025.1 mb 0.00 in0.0 mm 0.00 in0.0 mm 0.03 in0.8 mm
07:38 PM 35.3°F1.8°C 27.2°F-2.7°C 72% Calm Calm 1.0 mph1.6 kmh 30.27 in1025.1 mb 0.00 in0.0 mm 0.00 in0.0 mm 0.03 in0.8 mm
07:40 PM 35.2°F1.8°C 27.4°F-2.6°C 73% Calm Calm 1.0 mph1.6 kmh 30.27 in1025.1 mb 0.00 in0.0 mm 0.00 in0.0 mm 0.03 in0.8 mm
07:42 PM 35.2°F1.8°C 27.4°F-2.6°C 73% Calm Calm 1.0 mph1.6 kmh 30.27 in1025.1 mb 0.00 in0.0 mm 0.00 in0.0 mm 0.03 in0.8 mm
07:44 PM 35.2°F1.8°C 27.4°F-2.6°C 73% Calm Calm 1.0 mph1.6 kmh 30.27 in1025.1 mb 0.00 in0.0 mm 0.00 in0.0 mm 0.03 in0.8 mm
07:46 PM 35.2°F1.8°C 27.4°F-2.6°C 73% Calm Calm 1.0 mph1.6 kmh 30.27 in1025.1 mb 0.00 in0.0 mm 0.00 in0.0 mm 0.03 in0.8 mm
07:48 PM 35.2°F1.8°C 27.4°F-2.6°C 73% Calm Calm 1.0 mph1.6 kmh 30.27 in1025.1 mb 0.00 in0.0 mm 0.00 in0.0 mm 0.03 in0.8 mm
07:50 PM 35.2°F1.8°C 27.4°F-2.6°C 73% Calm Calm 1.0 mph1.6 kmh 30.27 in1025.1 mb 0.00 in0.0 mm 0.00 in0.0 mm 0.03 in0.8 mm
07:52 PM 35.1°F1.7°C 27.3°F-2.6°C 73% Calm Calm 1.0 mph1.6 kmh 30.27 in1025.1 mb 0.00 in0.0 mm 0.00 in0.0 mm 0.03 in0.8 mm
07:54 PM 35.1°F1.7°C 27.3°F-2.6°C 73% Calm Calm 1.0 mph1.6 kmh 30.27 in1025.1 mb 0.00 in0.0 mm 0.00 in0.0 mm 0.03 in0.8 mm
07:56 PM 35.1°F1.7°C 27.7°F-2.4°C 74% Calm Calm 1.0 mph1.6 kmh 30.27 in1025.1 mb 0.00 in0.0 mm 0.00 in0.0 mm 0.03 in0.8 mm
07:58 PM 35.1°F1.7°C 27.7°F-2.4°C 74% Calm Calm 1.0 mph1.6 kmh 30.27 in1025.1 mb 0.00 in0.0 mm 0.00 in0.0 mm 0.03 in0.8 mm
08:00 PM 35.1°F1.7°C 27.7°F-2.4°C 74% Calm Calm 1.0 mph1.6 kmh 30.27 in1025.1 mb 0.00 in0.0 mm 0.00 in0.0 mm 0.03 in0.8 mm
08:02 PM 35.0°F1.7°C 27.6°F-2.4°C 74% Calm Calm -- 30.27 in1025.1 mb 0.00 in0.0 mm 0.00 in0.0 mm 0.03 in0.8 mm
08:04 PM 35.0°F1.7°C 27.6°F-2.4°C 74% Calm Calm -- 30.27 in1025.1 mb 0.00 in0.0 mm 0.00 in0.0 mm 0.03 in0.8 mm
08:06 PM 35.0°F1.7°C 27.6°F-2.4°C 74% Calm Calm -- 30.27 in1025.1 mb 0.00 in0.0 mm 0.00 in0.0 mm 0.03 in0.8 mm
08:08 PM 34.9°F1.6°C 27.5°F-2.5°C 74% Calm Calm -- 30.27 in1025.1 mb 0.00 in0.0 mm 0.00 in0.0 mm 0.03 in0.8 mm
08:10 PM 34.9°F1.6°C 27.5°F-2.5°C 74% Calm Calm -- 30.27 in1025.1 mb 0.00 in0.0 mm 0.00 in0.0 mm 0.03 in0.8 mm
08:12 PM 34.8°F1.6°C 27.4°F-2.6°C 74% Calm Calm -- 30.27 in1025.1 mb 0.00 in0.0 mm 0.00 in0.0 mm 0.03 in0.8 mm
08:14 PM 34.8°F1.6°C 27.4°F-2.6°C 74% Calm Calm -- 30.27 in1025.1 mb 0.00 in0.0 mm 0.00 in0.0 mm 0.03 in0.8 mm
08:16 PM 34.8°F1.6°C 27.4°F-2.6°C 74% Calm Calm -- 30.26 in1024.7 mb 0.00 in0.0 mm 0.00 in0.0 mm 0.03 in0.8 mm
08:18 PM 34.8°F1.6°C 27.4°F-2.6°C 74% Calm Calm -- 30.26 in1024.7 mb 0.00 in0.0 mm 0.00 in0.0 mm 0.03 in0.8 mm
08:20 PM 34.8°F1.6°C 27.4°F-2.6°C 74% Calm Calm -- 30.26 in1024.7 mb 0.00 in0.0 mm 0.00 in0.0 mm 0.03 in0.8 mm
08:22 PM 34.7°F1.5°C 27.3°F-2.6°C 74% Calm Calm -- 30.26 in1024.7 mb 0.00 in0.0 mm 0.00 in0.0 mm 0.03 in0.8 mm
08:24 PM 34.7°F1.5°C 27.3°F-2.6°C 74% Calm Calm -- 30.26 in1024.7 mb 0.00 in0.0 mm 0.00 in0.0 mm 0.03 in0.8 mm
08:26 PM 34.7°F1.5°C 27.3°F-2.6°C 74% Calm Calm -- 30.26 in1024.7 mb 0.00 in0.0 mm 0.00 in0.0 mm 0.03 in0.8 mm
08:28 PM 34.6°F1.4°C 27.2°F-2.7°C 74% Calm Calm -- 30.26 in1024.7 mb 0.00 in0.0 mm 0.00 in0.0 mm 0.03 in0.8 mm
08:30 PM 34.6°F1.4°C 27.2°F-2.7°C 74% Calm Calm -- 30.26 in1024.7 mb 0.00 in0.0 mm 0.00 in0.0 mm 0.03 in0.8 mm
08:34 PM 34.5°F1.4°C 27.1°F-2.7°C 74% Calm Calm -- 30.26 in1024.7 mb 0.00 in0.0 mm 0.00 in0.0 mm 0.03 in0.8 mm
08:36 PM 34.5°F1.4°C 27.1°F-2.7°C 74% Calm Calm -- 30.26 in1024.7 mb 0.00 in0.0 mm 0.00 in0.0 mm 0.03 in0.8 mm
08:38 PM 34.4°F1.3°C 27.0°F-2.8°C 74% Calm Calm -- 30.26 in1024.7 mb 0.00 in0.0 mm 0.00 in0.0 mm 0.03 in0.8 mm
08:40 PM 34.4°F1.3°C 27.0°F-2.8°C 74% Calm Calm -- 30.26 in1024.7 mb 0.00 in0.0 mm 0.00 in0.0 mm 0.03 in0.8 mm
08:42 PM 34.4°F1.3°C 27.0°F-2.8°C 74% Calm Calm -- 30.26 in1024.7 mb 0.00 in0.0 mm 0.00 in0.0 mm 0.03 in0.8 mm
08:44 PM 34.4°F1.3°C 27.0°F-2.8°C 74% Calm Calm -- 30.26 in1024.7 mb 0.00 in0.0 mm 0.00 in0.0 mm 0.03 in0.8 mm
08:46 PM 34.4°F1.3°C 27.0°F-2.8°C 74% Calm Calm -- 30.26 in1024.7 mb 0.00 in0.0 mm 0.00 in0.0 mm 0.03 in0.8 mm
08:48 PM 34.3°F1.3°C 26.9°F-2.8°C 74% Calm Calm -- 30.27 in1025.1 mb 0.00 in0.0 mm 0.00 in0.0 mm 0.03 in0.8 mm
08:50 PM 34.4°F1.3°C 27.3°F-2.6°C 75% Calm Calm -- 30.26 in1024.7 mb 0.00 in0.0 mm 0.00 in0.0 mm 0.03 in0.8 mm
08:52 PM 34.3°F1.3°C 27.2°F-2.7°C 75% Calm Calm -- 30.27 in1025.1 mb 0.00 in0.0 mm 0.00 in0.0 mm 0.03 in0.8 mm
08:54 PM 34.3°F1.3°C 27.2°F-2.7°C 75% Calm Calm -- 30.27 in1025.1 mb 0.00 in0.0 mm 0.00 in0.0 mm 0.03 in0.8 mm
08:56 PM 34.4°F1.3°C 27.6°F-2.4°C 76% Calm Calm -- 30.27 in1025.1 mb 0.00 in0.0 mm 0.00 in0.0 mm 0.03 in0.8 mm
08:58 PM 34.3°F1.3°C 27.5°F-2.5°C 76% Calm Calm -- 30.27 in1025.1 mb 0.00 in0.0 mm 0.00 in0.0 mm 0.03 in0.8 mm
09:00 PM 34.3°F1.3°C 27.5°F-2.5°C 76% Calm Calm -- 30.27 in1025.1 mb 0.00 in0.0 mm 0.00 in0.0 mm 0.03 in0.8 mm
09:02 PM 34.3°F1.3°C 27.5°F-2.5°C 76% Calm Calm -- 30.27 in1025.1 mb 0.00 in0.0 mm 0.00 in0.0 mm 0.03 in0.8 mm
09:04 PM 34.3°F1.3°C 27.5°F-2.5°C 76% Calm Calm -- 30.27 in1025.1 mb 0.00 in0.0 mm 0.00 in0.0 mm 0.03 in0.8 mm
09:06 PM 34.3°F1.3°C 27.5°F-2.5°C 76% Calm Calm -- 30.27 in1025.1 mb 0.00 in0.0 mm 0.00 in0.0 mm 0.03 in0.8 mm
09:08 PM 34.3°F1.3°C 27.5°F-2.5°C 76% Calm Calm -- 30.27 in1025.1 mb 0.00 in0.0 mm 0.00 in0.0 mm 0.03 in0.8 mm
09:10 PM 34.3°F1.3°C 27.5°F-2.5°C 76% Calm Calm -- 30.27 in1025.1 mb 0.00 in0.0 mm 0.00 in0.0 mm 0.03 in0.8 mm
09:12 PM 34.3°F1.3°C 27.5°F-2.5°C 76% Calm Calm -- 30.27 in1025.1 mb 0.00 in0.0 mm 0.00 in0.0 mm 0.03 in0.8 mm
09:14 PM 34.3°F1.3°C 27.5°F-2.5°C 76% Calm Calm -- 30.27 in1025.1 mb 0.00 in0.0 mm 0.00 in0.0 mm 0.03 in0.8 mm
09:16 PM 34.3°F1.3°C 27.5°F-2.5°C 76% Calm Calm -- 30.27 in1025.1 mb 0.00 in0.0 mm 0.00 in0.0 mm 0.03 in0.8 mm
09:18 PM 34.3°F1.3°C 27.5°F-2.5°C 76% Calm Calm -- 30.26 in1024.7 mb 0.00 in0.0 mm 0.00 in0.0 mm 0.03 in0.8 mm
09:20 PM 34.3°F1.3°C 27.5°F-2.5°C 76% Calm Calm -- 30.26 in1024.7 mb 0.00 in0.0 mm 0.00 in0.0 mm 0.03 in0.8 mm
09:22 PM 34.3°F1.3°C 27.5°F-2.5°C 76% Calm Calm -- 30.26 in1024.7 mb 0.00 in0.0 mm 0.00 in0.0 mm 0.03 in0.8 mm
09:24 PM 34.3°F1.3°C 27.5°F-2.5°C 76% Calm Calm -- 30.26 in1024.7 mb 0.00 in0.0 mm 0.00 in0.0 mm 0.03 in0.8 mm
09:26 PM 34.3°F1.3°C 27.5°F-2.5°C 76% Calm Calm -- 30.26 in1024.7 mb 0.00 in0.0 mm 0.00 in0.0 mm 0.03 in0.8 mm
09:28 PM 34.3°F1.3°C 27.5°F-2.5°C 76% Calm Calm -- 30.26 in1024.7 mb 0.00 in0.0 mm 0.00 in0.0 mm 0.03 in0.8 mm
09:30 PM 34.2°F1.2°C 27.4°F-2.6°C 76% Calm Calm -- 30.26 in1024.7 mb 0.00 in0.0 mm 0.00 in0.0 mm 0.03 in0.8 mm
09:34 PM 34.2°F1.2°C 27.4°F-2.6°C 76% Calm Calm -- 30.26 in1024.7 mb 0.00 in0.0 mm 0.00 in0.0 mm 0.03 in0.8 mm
09:36 PM 34.1°F1.2°C 27.3°F-2.6°C 76% Calm Calm -- 30.26 in1024.7 mb 0.00 in0.0 mm 0.00 in0.0 mm 0.03 in0.8 mm
09:38 PM 34.1°F1.2°C 27.0°F-2.8°C 75% Calm Calm -- 30.26 in1024.7 mb 0.00 in0.0 mm 0.00 in0.0 mm 0.03 in0.8 mm
09:40 PM 34.1°F1.2°C 27.0°F-2.8°C 75% Calm Calm -- 30.26 in1024.7 mb 0.00 in0.0 mm 0.00 in0.0 mm 0.03 in0.8 mm
09:42 PM 34.1°F1.2°C 27.0°F-2.8°C 75% Calm Calm -- 30.26 in1024.7 mb 0.00 in0.0 mm 0.00 in0.0 mm 0.03 in0.8 mm
09:44 PM 34.0°F1.1°C 26.9°F-2.8°C 75% Calm Calm -- 30.26 in1024.7 mb 0.00 in0.0 mm 0.00 in0.0 mm 0.03 in0.8 mm
09:46 PM 34.0°F1.1°C 26.9°F-2.8°C 75% Calm Calm -- 30.26 in1024.7 mb 0.00 in0.0 mm 0.00 in0.0 mm 0.03 in0.8 mm
09:48 PM 33.9°F1.1°C 26.8°F-2.9°C 75% Calm Calm -- 30.26 in1024.7 mb 0.00 in0.0 mm 0.00 in0.0 mm 0.03 in0.8 mm
09:50 PM 33.9°F1.1°C 26.8°F-2.9°C 75% Calm Calm -- 30.25 in1024.4 mb 0.00 in0.0 mm 0.00 in0.0 mm 0.03 in0.8 mm
09:52 PM 33.9°F1.1°C 26.5°F-3.1°C 74% Calm Calm -- 30.26 in1024.7 mb 0.00 in0.0 mm 0.00 in0.0 mm 0.03 in0.8 mm
09:54 PM 33.9°F1.1°C 26.8°F-2.9°C 75% Calm Calm -- 30.26 in1024.7 mb 0.00 in0.0 mm 0.00 in0.0 mm 0.03 in0.8 mm
09:56 PM 33.9°F1.1°C 26.8°F-2.9°C 75% Calm Calm -- 30.26 in1024.7 mb 0.00 in0.0 mm 0.00 in0.0 mm 0.03 in0.8 mm
09:58 PM 33.9°F1.1°C 26.8°F-2.9°C 75% Calm Calm -- 30.26 in1024.7 mb 0.00 in0.0 mm 0.00 in0.0 mm 0.03 in0.8 mm
10:00 PM 33.9°F1.1°C 26.8°F-2.9°C 75% Calm Calm -- 30.25 in1024.4 mb 0.00 in0.0 mm 0.00 in0.0 mm 0.03 in0.8 mm
10:02 PM 33.8°F1.0°C 26.7°F-2.9°C 75% Calm Calm -- 30.26 in1024.7 mb 0.00 in0.0 mm 0.00 in0.0 mm 0.03 in0.8 mm
10:04 PM 33.9°F1.1°C 26.8°F-2.9°C 75% Calm Calm -- 30.26 in1024.7 mb 0.00 in0.0 mm 0.00 in0.0 mm 0.03 in0.8 mm
10:06 PM 33.8°F1.0°C 26.7°F-2.9°C 75% Calm Calm -- 30.26 in1024.7 mb 0.00 in0.0 mm 0.00 in0.0 mm 0.03 in0.8 mm
10:08 PM 33.8°F1.0°C 26.7°F-2.9°C 75% Calm Calm -- 30.26 in1024.7 mb 0.00 in0.0 mm 0.00 in0.0 mm 0.03 in0.8 mm
10:10 PM 33.8°F1.0°C 26.7°F-2.9°C 75% Calm Calm -- 30.26 in1024.7 mb 0.00 in0.0 mm 0.00 in0.0 mm 0.03 in0.8 mm
10:12 PM 33.8°F1.0°C 26.7°F-2.9°C 75% Calm Calm -- 30.25 in1024.4 mb 0.00 in0.0 mm 0.00 in0.0 mm 0.03 in0.8 mm
10:14 PM 33.8°F1.0°C 26.7°F-2.9°C 75% Calm Calm -- 30.25 in1024.4 mb 0.00 in0.0 mm 0.00 in0.0 mm 0.03 in0.8 mm
10:16 PM 33.7°F0.9°C 26.6°F-3.0°C 75% Calm Calm -- 30.25 in1024.4 mb 0.00 in0.0 mm 0.00 in0.0 mm 0.03 in0.8 mm
10:18 PM 33.7°F0.9°C 26.6°F-3.0°C 75% Calm Calm -- 30.25 in1024.4 mb 0.00 in0.0 mm 0.00 in0.0 mm 0.03 in0.8 mm
10:20 PM 33.7°F0.9°C 26.6°F-3.0°C 75% Calm Calm -- 30.25 in1024.4 mb 0.00 in0.0 mm 0.00 in0.0 mm 0.03 in0.8 mm
10:22 PM 33.7°F0.9°C 26.6°F-3.0°C 75% Calm Calm -- 30.25 in1024.4 mb 0.00 in0.0 mm 0.00 in0.0 mm 0.03 in0.8 mm
10:24 PM 33.7°F0.9°C 26.6°F-3.0°C 75% Calm Calm -- 30.25 in1024.4 mb 0.00 in0.0 mm 0.00 in0.0 mm 0.03 in0.8 mm
10:26 PM 33.6°F0.9°C 26.5°F-3.1°C 75% Calm Calm -- 30.25 in1024.4 mb 0.00 in0.0 mm 0.00 in0.0 mm 0.03 in0.8 mm
10:28 PM 33.6°F0.9°C 26.5°F-3.1°C 75% Calm Calm -- 30.24 in1024.0 mb 0.00 in0.0 mm 0.00 in0.0 mm 0.03 in0.8 mm
10:30 PM 33.6°F0.9°C 26.5°F-3.1°C 75% Calm Calm -- 30.24 in1024.0 mb 0.00 in0.0 mm 0.00 in0.0 mm 0.03 in0.8 mm
10:34 PM 33.5°F0.8°C 26.4°F-3.1°C 75% Calm Calm -- 30.24 in1024.0 mb 0.00 in0.0 mm 0.00 in0.0 mm 0.03 in0.8 mm
10:36 PM 33.5°F0.8°C 26.4°F-3.1°C 75% Calm Calm -- 30.24 in1024.0 mb 0.00 in0.0 mm 0.00 in0.0 mm 0.03 in0.8 mm
10:38 PM 33.5°F0.8°C 26.4°F-3.1°C 75% Calm Calm -- 30.24 in1024.0 mb 0.00 in0.0 mm 0.00 in0.0 mm 0.03 in0.8 mm
10:40 PM 33.5°F0.8°C 26.4°F-3.1°C 75% Calm Calm -- 30.23 in1023.7 mb 0.00 in0.0 mm 0.00 in0.0 mm 0.03 in0.8 mm
10:42 PM 33.4°F0.8°C 26.3°F-3.2°C 75% Calm Calm -- 30.23 in1023.7 mb 0.00 in0.0 mm 0.00 in0.0 mm 0.03 in0.8 mm
10:44 PM 33.4°F0.8°C 26.3°F-3.2°C 75% Calm Calm -- 30.23 in1023.7 mb 0.00 in0.0 mm 0.00 in0.0 mm 0.03 in0.8 mm
10:46 PM 33.4°F0.8°C 26.3°F-3.2°C 75% Calm Calm -- 30.24 in1024.0 mb 0.00 in0.0 mm 0.00 in0.0 mm 0.03 in0.8 mm
10:48 PM 33.4°F0.8°C 26.3°F-3.2°C 75% Calm Calm -- 30.23 in1023.7 mb 0.00 in0.0 mm 0.00 in0.0 mm 0.03 in0.8 mm
10:50 PM 33.4°F0.8°C 26.3°F-3.2°C 75% Calm Calm -- 30.24 in1024.0 mb 0.00 in0.0 mm 0.00 in0.0 mm 0.03 in0.8 mm
10:52 PM 33.3°F0.7°C 26.3°F-3.2°C 75% Calm Calm -- 30.23 in1023.7 mb 0.00 in0.0 mm 0.00 in0.0 mm 0.03 in0.8 mm
10:54 PM 33.3°F0.7°C 26.3°F-3.2°C 75% Calm Calm -- 30.23 in1023.7 mb 0.00 in0.0 mm 0.00 in0.0 mm 0.03 in0.8 mm
10:56 PM 33.3°F0.7°C 26.3°F-3.2°C 75% Calm Calm -- 30.23 in1023.7 mb 0.00 in0.0 mm 0.00 in0.0 mm 0.03 in0.8 mm
10:58 PM 33.3°F0.7°C 26.3°F-3.2°C 75% Calm Calm -- 30.23 in1023.7 mb 0.00 in0.0 mm 0.00 in0.0 mm 0.03 in0.8 mm
11:00 PM 33.2°F0.7°C 26.2°F-3.2°C 75% Calm Calm -- 30.24 in1024.0 mb 0.00 in0.0 mm 0.00 in0.0 mm 0.03 in0.8 mm
11:02 PM 33.3°F0.7°C 26.3°F-3.2°C 75% Calm Calm -- 30.24 in1024.0 mb 0.00 in0.0 mm 0.00 in0.0 mm 0.03 in0.8 mm
11:04 PM 33.2°F0.7°C 26.2°F-3.2°C 75% Calm Calm -- 30.23 in1023.7 mb 0.00 in0.0 mm 0.00 in0.0 mm 0.03 in0.8 mm
11:06 PM 33.2°F0.7°C 26.2°F-3.2°C 75% Calm Calm -- 30.23 in1023.7 mb 0.00 in0.0 mm 0.00 in0.0 mm 0.03 in0.8 mm
11:08 PM 33.2°F0.7°C 26.5°F-3.1°C 76% Calm Calm -- 30.24 in1024.0 mb 0.00 in0.0 mm 0.00 in0.0 mm 0.03 in0.8 mm
11:10 PM 33.2°F0.7°C 26.2°F-3.2°C 75% Calm Calm -- 30.24 in1024.0 mb 0.00 in0.0 mm 0.00 in0.0 mm 0.03 in0.8 mm
11:12 PM 33.2°F0.7°C 26.5°F-3.1°C 76% Calm Calm -- 30.24 in1024.0 mb 0.00 in0.0 mm 0.00 in0.0 mm 0.03 in0.8 mm
11:14 PM 33.2°F0.7°C 26.5°F-3.1°C 76% Calm Calm -- 30.24 in1024.0 mb 0.00 in0.0 mm 0.00 in0.0 mm 0.03 in0.8 mm
11:16 PM 33.2°F0.7°C 26.5°F-3.1°C 76% Calm Calm -- 30.24 in1024.0 mb 0.00 in0.0 mm 0.00 in0.0 mm 0.03 in0.8 mm
11:18 PM 33.2°F0.7°C 26.5°F-3.1°C 76% Calm Calm -- 30.23 in1023.7 mb 0.00 in0.0 mm 0.00 in0.0 mm 0.03 in0.8 mm
11:20 PM 33.2°F0.7°C 26.5°F-3.1°C 76% Calm Calm -- 30.23 in1023.7 mb 0.00 in0.0 mm 0.00 in0.0 mm 0.03 in0.8 mm
11:22 PM 33.2°F0.7°C 26.5°F-3.1°C 76% Calm Calm -- 30.23 in1023.7 mb 0.00 in0.0 mm 0.00 in0.0 mm 0.03 in0.8 mm
11:24 PM 33.2°F0.7°C 26.5°F-3.1°C 76% Calm Calm -- 30.23 in1023.7 mb 0.00 in0.0 mm 0.00 in0.0 mm 0.03 in0.8 mm
11:26 PM 33.2°F0.7°C 26.5°F-3.1°C 76% Calm Calm -- 30.22 in1023.4 mb 0.00 in0.0 mm 0.00 in0.0 mm 0.03 in0.8 mm
11:28 PM 33.2°F0.7°C 26.5°F-3.1°C 76% Calm Calm -- 30.22 in1023.4 mb 0.00 in0.0 mm 0.00 in0.0 mm 0.03 in0.8 mm
11:30 PM 33.2°F0.7°C 26.5°F-3.1°C 76% Calm Calm -- 30.22 in1023.4 mb 0.00 in0.0 mm 0.00 in0.0 mm 0.03 in0.8 mm
11:34 PM 33.3°F0.7°C 26.6°F-3.0°C 76% Calm Calm -- 30.22 in1023.4 mb 0.00 in0.0 mm 0.00 in0.0 mm 0.03 in0.8 mm
11:36 PM 33.3°F0.7°C 26.6°F-3.0°C 76% Calm Calm -- 30.22 in1023.4 mb 0.00 in0.0 mm 0.00 in0.0 mm 0.03 in0.8 mm
11:38 PM 33.3°F0.7°C 26.6°F-3.0°C 76% Calm Calm -- 30.22 in1023.4 mb 0.00 in0.0 mm 0.00 in0.0 mm 0.03 in0.8 mm
11:40 PM 33.3°F0.7°C 26.6°F-3.0°C 76% Calm Calm -- 30.22 in1023.4 mb 0.00 in0.0 mm 0.00 in0.0 mm 0.03 in0.8 mm
11:42 PM 33.3°F0.7°C 26.6°F-3.0°C 76% Calm Calm -- 30.21 in1023.0 mb 0.00 in0.0 mm 0.00 in0.0 mm 0.03 in0.8 mm
11:44 PM 33.3°F0.7°C 26.6°F-3.0°C 76% Calm Calm -- 30.21 in1023.0 mb 0.00 in0.0 mm 0.00 in0.0 mm 0.03 in0.8 mm
11:46 PM 33.3°F0.7°C 26.6°F-3.0°C 76% Calm Calm -- 30.21 in1023.0 mb 0.00 in0.0 mm 0.00 in0.0 mm 0.03 in0.8 mm
11:48 PM 33.3°F0.7°C 26.6°F-3.0°C 76% Calm Calm -- 30.21 in1023.0 mb 0.00 in0.0 mm 0.00 in0.0 mm 0.03 in0.8 mm
11:50 PM 33.4°F0.8°C 26.7°F-2.9°C 76% Calm Calm -- 30.21 in1023.0 mb 0.00 in0.0 mm 0.00 in0.0 mm 0.03 in0.8 mm
11:52 PM 33.4°F0.8°C 26.7°F-2.9°C 76% Calm Calm -- 30.21 in1023.0 mb 0.00 in0.0 mm 0.00 in0.0 mm 0.03 in0.8 mm
11:54 PM 33.4°F0.8°C 26.7°F-2.9°C 76% Calm Calm -- 30.21 in1023.0 mb 0.00 in0.0 mm 0.00 in0.0 mm 0.03 in0.8 mm
11:56 PM 33.4°F0.8°C 26.7°F-2.9°C 76% Calm Calm -- 30.21 in1023.0 mb 0.00 in0.0 mm 0.00 in0.0 mm 0.03 in0.8 mm
11:58 PM 33.4°F0.8°C 26.7°F-2.9°C 76% Calm Calm -- 30.21 in1023.0 mb 0.00 in0.0 mm 0.00 in0.0 mm 0.03 in0.8 mm